Observation data for Panhandle on 08/13/2019      Previous  Date       Current Mesonet Observations  Soil Data  Daily Summary Page  Observations in Plain Language
KPA1 130500Z 09015KT 21/19 A3003 RMK A01 T02080189  RH  089%=      5-min Rain = 0
KPA1 130501Z 09014G19KT 21/19 A3003 RMK A01 T02080190  RH  089%=      5-min Rain = 0
KPA1 130502Z 09015KT 21/19 A3003 RMK A01 T02070189  RH  089%=      5-min Rain = 0
KPA1 130503Z 09014KT 21/19 A3003 RMK A01 T02070189  RH  089%=      5-min Rain = 0
KPA1 130504Z 10013KT 21/19 A3003 RMK A01 T02070189  RH  089%=      5-min Rain = 0
KPA1 130505Z 09014KT 21/19 A3003 RMK A01 T02070190  RH  089%=      5-min Rain = 0
KPA1 130506Z 09012KT 21/19 A3003 RMK A01 T02070189  RH  089%=      5-min Rain = 0
KPA1 130507Z 10014KT 21/19 A3003 RMK A01 T02070189  RH  089%=      5-min Rain = 0
KPA1 130508Z 10014KT 21/19 A3003 RMK A01 T02070189  RH  089%=      5-min Rain = 0
KPA1 130509Z 10014KT 21/19 A3003 RMK A01 T02080189  RH  089%=      5-min Rain = 0
KPA1 130510Z 10012KT 21/19 A3002 RMK A01 T02080189  RH  089%=      5-min Rain = 0
KPA1 130511Z 10013KT 21/19 A3002 RMK A01 T02080189  RH  089%=      5-min Rain = 0
KPA1 130512Z 09012KT 21/19 A3003 RMK A01 T02080189  RH  089%=      5-min Rain = 0
KPA1 130513Z 09013KT 21/19 A3003 RMK A01 T02080189  RH  089%=      5-min Rain = 0
KPA1 130514Z 09012KT 21/19 A3003 RMK A01 T02080189  RH  089%=      5-min Rain = 0
KPA1 130515Z 09012KT 21/19 A3003 RMK A01 T02090189  RH  089%=      5-min Rain = 0
KPA1 130516Z 09011KT 21/19 A3003 RMK A01 T02080189  RH  089%=      5-min Rain = 0
KPA1 130517Z 09010KT 21/19 A3003 RMK A01 T02080189  RH  089%=      5-min Rain = 0
KPA1 130518Z 09010KT 21/19 A3003 RMK A01 T02080190  RH  089%=      5-min Rain = 0
KPA1 130519Z 09011KT 21/19 A3003 RMK A01 T02080190  RH  089%=      5-min Rain = 0
KPA1 130520Z 08010KT 21/19 A3003 RMK A01 T02080190  RH  089%=      5-min Rain = 0
KPA1 130521Z 09010KT 21/19 A3004 RMK A01 T02080190  RH  089%=      5-min Rain = 0
KPA1 130522Z 08011KT 21/19 A3004 RMK A01 T02080190  RH  089%=      5-min Rain = 0
KPA1 130523Z 08010KT 21/19 A3004 RMK A01 T02080190  RH  089%=      5-min Rain = 0
KPA1 130524Z 08010KT 21/19 A3004 RMK A01 T02080190  RH  090%=      5-min Rain = 0
KPA1 130525Z 08009KT 21/19 A3004 RMK A01 T02080190  RH  090%=      5-min Rain = 0
KPA1 130526Z 08009KT 21/19 A3004 RMK A01 T02070191  RH  090%=      5-min Rain = 0
KPA1 130527Z 08010KT 21/19 A3004 RMK A01 T02070191  RH  090%=      5-min Rain = 0
KPA1 130528Z 08009KT 21/19 A3004 RMK A01 T02070190  RH  090%=      5-min Rain = 0
KPA1 130529Z 09008KT 21/19 A3004 RMK A01 T02070191  RH  090%=      5-min Rain = 0
KPA1 130530Z 08010KT 21/19 A3004 RMK A01 T02070191  RH  091%=      5-min Rain = 0
KPA1 130531Z 09010KT 21/19 A3004 RMK A01 T02060190  RH  091%=      5-min Rain = 0
KPA1 130532Z 09009KT 21/19 A3004 RMK A01 T02070191  RH  090%=      5-min Rain = 0
KPA1 130533Z 09010KT 21/19 A3004 RMK A01 T02070191  RH  091%=      5-min Rain = 0
KPA1 130534Z 09010KT 21/19 A3004 RMK A01 T02070191  RH  090%=      5-min Rain = 0
KPA1 130535Z 09011KT 21/19 A3004 RMK A01 T02070191  RH  090%=      5-min Rain = 0
KPA1 130536Z 09012KT 21/19 A3004 RMK A01 T02070190  RH  090%=      5-min Rain = 0
KPA1 130537Z 09011KT 21/19 A3004 RMK A01 T02080190  RH  090%=      5-min Rain = 0
KPA1 130538Z 10012KT 21/19 A3004 RMK A01 T02080190  RH  089%=      5-min Rain = 0
KPA1 130539Z 10011KT 21/19 A3004 RMK A01 T02080190  RH  089%=      5-min Rain = 0
KPA1 130540Z 10013KT 21/19 A3004 RMK A01 T02090190  RH  089%=      5-min Rain = 0
KPA1 130541Z 09013KT 21/19 A3004 RMK A01 T02090189  RH  089%=      5-min Rain = 0
KPA1 130542Z 10014KT 21/19 A3004 RMK A01 T02090189  RH  088%=      5-min Rain = 0
KPA1 130543Z 10014KT 21/19 A3004 RMK A01 T02100188  RH  088%=      5-min Rain = 0
KPA1 130544Z 10012KT 21/19 A3004 RMK A01 T02100189  RH  088%=      5-min Rain = 0
KPA1 130545Z 10011KT 21/19 A3004 RMK A01 T02100189  RH  088%=      5-min Rain = 0
KPA1 130546Z 10013KT 21/19 A3004 RMK A01 T02100189  RH  088%=      5-min Rain = 0
KPA1 130547Z 09013G18KT 21/19 A3004 RMK A01 T02100189  RH  088%=      5-min Rain = 0
KPA1 130548Z 10013KT 21/19 A3004 RMK A01 T02100188  RH  088%=      5-min Rain = 0
KPA1 130549Z 09011KT 21/19 A3004 RMK A01 T02100189  RH  088%=      5-min Rain = 0
KPA1 130550Z 10010KT 21/19 A3004 RMK A01 T02100190  RH  088%=      5-min Rain = 0
KPA1 130551Z 10010KT 21/19 A3004 RMK A01 T02090189  RH  089%=      5-min Rain = 0
KPA1 130552Z 09011KT 21/19 A3004 RMK A01 T02090190  RH  089%=      5-min Rain = 0
KPA1 130553Z 09010KT 21/19 A3004 RMK A01 T02080189  RH  089%=      5-min Rain = 0
KPA1 130554Z 10010KT 21/19 A3004 RMK A01 T02080190  RH  089%=      5-min Rain = 0
KPA1 130555Z 10010KT 21/19 A3004 RMK A01 T02080190  RH  089%=      5-min Rain = 0
KPA1 130556Z 09010KT 21/19 A3004 RMK A01 T02080190  RH  089%=      5-min Rain = 0
KPA1 130557Z 09011KT 21/19 A3004 RMK A01 T02080190  RH  090%=      5-min Rain = 0
KPA1 130558Z 10012KT 21/19 A3004 RMK A01 T02080189  RH  089%=      5-min Rain = 0
KPA1 130559Z 10012KT 21/19 A3004 RMK A01 T02090190  RH  089%=      5-min Rain = 0
KPA1 130600Z 09012KT 21/19 A3004 RMK A01 T02090189  RH  089%=      5-min Rain = 0
KPA1 130601Z 10011KT 21/19 A3004 RMK A01 T02090189  RH  088%=      5-min Rain = 0
KPA1 130602Z 10012KT 21/19 A3004 RMK A01 T02090189  RH  088%=      5-min Rain = 0
KPA1 130603Z 10013KT 21/19 A3004 RMK A01 T02100189  RH  088%=      5-min Rain = 0
KPA1 130604Z 10012KT 21/19 A3004 RMK A01 T02100189  RH  088%=      5-min Rain = 0
KPA1 130605Z 10012KT 21/19 A3004 RMK A01 T02100190  RH  088%=      5-min Rain = 0
KPA1 130606Z 10013KT 21/19 A3004 RMK A01 T02100190  RH  088%=      5-min Rain = 0
KPA1 130607Z 11014KT 21/19 A3004 RMK A01 T02100189  RH  088%=      5-min Rain = 0
KPA1 130608Z 11014KT 21/19 A3004 RMK A01 T02100189  RH  088%=      5-min Rain = 0
KPA1 130609Z 10012KT 21/19 A3004 RMK A01 T02110189  RH  088%=      5-min Rain = 0
KPA1 130610Z 10014G19KT 21/19 A3004 RMK A01 T02110189  RH  087%=      5-min Rain = 0
KPA1 130611Z 10015KT 21/19 A3004 RMK A01 T02110189  RH  087%=      5-min Rain = 0
KPA1 130612Z 10014KT 21/19 A3004 RMK A01 T02120188  RH  086%=      5-min Rain = 0
KPA1 130613Z 10014KT 21/19 A3004 RMK A01 T02120188  RH  086%=      5-min Rain = 0
KPA1 130614Z 09014KT 21/19 A3004 RMK A01 T02130188  RH  086%=      5-min Rain = 0
KPA1 130615Z 10015KT 21/19 A3005 RMK A01 T02130189  RH  086%=      5-min Rain = 0
KPA1 130616Z 10012KT 21/19 A3005 RMK A01 T02130188  RH  086%=      5-min Rain = 0
KPA1 130617Z 10012KT 21/19 A3005 RMK A01 T02130189  RH  086%=      5-min Rain = 0
KPA1 130618Z 10011KT 21/19 A3005 RMK A01 T02130189  RH  086%=      5-min Rain = 0
KPA1 130619Z 09012KT 21/19 A3005 RMK A01 T02130189  RH  087%=      5-min Rain = 0
KPA1 130620Z 08012KT 21/19 A3005 RMK A01 T02120190  RH  087%=      5-min Rain = 0
KPA1 130621Z 09012KT 21/19 A3005 RMK A01 T02120190  RH  087%=      5-min Rain = 0
KPA1 130622Z 08011KT 21/19 A3005 RMK A01 T02110190  RH  088%=      5-min Rain = 0
KPA1 130623Z 08011KT 21/19 A3005 RMK A01 T02110190  RH  088%=      5-min Rain = 0
KPA1 130624Z 09012KT 21/19 A3005 RMK A01 T02110191  RH  088%=      5-min Rain = 0
KPA1 130625Z 09011KT 21/19 A3005 RMK A01 T02110191  RH  088%=      5-min Rain = 0
KPA1 130626Z 10014KT 21/19 A3005 RMK A01 T02110190  RH  088%=      5-min Rain = 0
KPA1 130627Z 10014G19KT 21/19 A3005 RMK A01 T02110189  RH  087%=      5-min Rain = 0
KPA1 130628Z 10017KT 21/19 A3005 RMK A01 T02120189  RH  087%=      5-min Rain = 0
KPA1 130629Z 09012G18KT 21/19 A3005 RMK A01 T02120190  RH  087%=      5-min Rain = 0
KPA1 130630Z 10012KT 21/19 A3005 RMK A01 T02120190  RH  087%=      5-min Rain = 0
KPA1 130631Z 10012KT 21/19 A3005 RMK A01 T02110191  RH  088%=      5-min Rain = 0
KPA1 130632Z 10013KT 21/19 A3005 RMK A01 T02110190  RH  088%=      5-min Rain = 0
KPA1 130633Z 10013G18KT 21/19 A3005 RMK A01 T02110190  RH  088%=      5-min Rain = 0
KPA1 130634Z 10014KT 21/19 A3005 RMK A01 T02110190  RH  088%=      5-min Rain = 0
KPA1 130635Z 11013KT 21/19 A3005 RMK A01 T02110190  RH  088%=      5-min Rain = 0
KPA1 130636Z 10012KT 21/19 A3005 RMK A01 T02110190  RH  088%=      5-min Rain = 0
KPA1 130637Z 10014KT 21/19 A3005 RMK A01 T02110190  RH  088%=      5-min Rain = 0
KPA1 130638Z 10013KT 21/19 A3005 RMK A01 T02110190  RH  088%=      5-min Rain = 0
KPA1 130639Z 10014KT 21/19 A3005 RMK A01 T02110190  RH  088%=      5-min Rain = 0
KPA1 130640Z 10015KT 21/19 A3005 RMK A01 T02100190  RH  088%=      5-min Rain = 0
KPA1 130641Z 10012KT 21/19 A3005 RMK A01 T02110190  RH  088%=      5-min Rain = 0
KPA1 130642Z 10011KT 21/19 A3005 RMK A01 T02110190  RH  088%=      5-min Rain = 0
KPA1 130643Z 10012KT 21/19 A3005 RMK A01 T02100190  RH  088%=      5-min Rain = 0
KPA1 130644Z 10011KT 21/19 A3005 RMK A01 T02110191  RH  088%=      5-min Rain = 0
KPA1 130645Z 10009KT 21/19 A3005 RMK A01 T02100190  RH  088%=      5-min Rain = 0
KPA1 130646Z 10011KT 21/19 A3005 RMK A01 T02100190  RH  088%=      5-min Rain = 0
KPA1 130647Z 09010KT 21/19 A3005 RMK A01 T02100190  RH  088%=      5-min Rain = 0
KPA1 130648Z 10011KT 21/19 A3005 RMK A01 T02100190  RH  088%=      5-min Rain = 0
KPA1 130649Z 10011KT 21/19 A3005 RMK A01 T02100189  RH  088%=      5-min Rain = 0
KPA1 130650Z 09010KT 21/19 A3005 RMK A01 T02110190  RH  088%=      5-min Rain = 0
KPA1 130651Z 08009KT 21/19 A3005 RMK A01 T02110189  RH  088%=      5-min Rain = 0
KPA1 130652Z 09010KT 21/19 A3005 RMK A01 T02110190  RH  088%=      5-min Rain = 0
KPA1 130653Z 08007KT 21/19 A3005 RMK A01 T02110190  RH  088%=      5-min Rain = 0
KPA1 130654Z 09007KT 21/19 A3005 RMK A01 T02100191  RH  089%=      5-min Rain = 0
KPA1 130655Z 09008KT 21/19 A3005 RMK A01 T02090191  RH  089%=      5-min Rain = 0
KPA1 130656Z 09010KT 21/19 A3005 RMK A01 T02090191  RH  089%=      5-min Rain = 0
KPA1 130657Z 09009KT 21/19 A3005 RMK A01 T02090190  RH  088%=      5-min Rain = 0
KPA1 130658Z 09007KT 21/19 A3005 RMK A01 T02100190  RH  088%=      5-min Rain = 0
KPA1 130659Z 09010KT 21/19 A3005 RMK A01 T02100191  RH  089%=      5-min Rain = 0
KPA1 130700Z 09009KT 21/19 A3005 RMK A01 T02100191  RH  089%=      5-min Rain = 0
KPA1 130701Z 09008KT 21/19 A3005 RMK A01 T02100191  RH  089%=      5-min Rain = 0
KPA1 130702Z 09009KT 21/19 A3005 RMK A01 T02100191  RH  089%=      5-min Rain = 0
KPA1 130703Z 09009KT 21/19 A3005 RMK A01 T02090191  RH  089%=      5-min Rain = 0
KPA1 130704Z 10010KT 21/19 A3005 RMK A01 T02090191  RH  089%=      5-min Rain = 0
KPA1 130705Z 10010KT 21/19 A3005 RMK A01 T02090190  RH  089%=      5-min Rain = 0
KPA1 130706Z 10011KT 21/19 A3004 RMK A01 T02090190  RH  089%=      5-min Rain = 0
KPA1 130707Z 10009KT 21/19 A3004 RMK A01 T02090190  RH  089%=      5-min Rain = 0
KPA1 130708Z 10010KT 21/19 A3004 RMK A01 T02090191  RH  089%=      5-min Rain = 0
KPA1 130709Z 10010KT 21/19 A3004 RMK A01 T02090190  RH  089%=      5-min Rain = 0
KPA1 130710Z 10011KT 21/19 A3004 RMK A01 T02090190  RH  089%=      5-min Rain = 0
KPA1 130711Z 10010KT 21/19 A3004 RMK A01 T02090190  RH  089%=      5-min Rain = 0
KPA1 130712Z 10011KT 21/19 A3004 RMK A01 T02090190  RH  089%=      5-min Rain = 0
KPA1 130713Z 10010KT 21/19 A3004 RMK A01 T02090190  RH  089%=      5-min Rain = 0
KPA1 130714Z 10011KT 21/19 A3004 RMK A01 T02090190  RH  089%=      5-min Rain = 0
KPA1 130715Z 10010KT 21/19 A3004 RMK A01 T02090190  RH  089%=      5-min Rain = 0
KPA1 130716Z 10010KT 21/19 A3004 RMK A01 T02090191  RH  089%=      5-min Rain = 0
KPA1 130717Z 11011KT 21/19 A3004 RMK A01 T02080190  RH  089%=      5-min Rain = 0
KPA1 130718Z 11009KT 21/19 A3004 RMK A01 T02080190  RH  090%=      5-min Rain = 0
KPA1 130719Z 11009KT 21/19 A3004 RMK A01 T02080190  RH  090%=      5-min Rain = 0
KPA1 130720Z 11011KT 21/19 A3004 RMK A01 T02070190  RH  090%=      5-min Rain = 0
KPA1 130721Z 11012KT 21/19 A3004 RMK A01 T02070190  RH  090%=      5-min Rain = 0
KPA1 130722Z 11009KT 21/19 A3004 RMK A01 T02080190  RH  090%=      5-min Rain = 0
KPA1 130723Z 11011KT 21/19 A3004 RMK A01 T02080190  RH  089%=      5-min Rain = 0
KPA1 130724Z 11010KT 21/19 A3004 RMK A01 T02080190  RH  089%=      5-min Rain = 0
KPA1 130725Z 10010KT 21/19 A3004 RMK A01 T02080190  RH  089%=      5-min Rain = 0
KPA1 130726Z 10009KT 21/19 A3004 RMK A01 T02080190  RH  090%=      5-min Rain = 0
KPA1 130727Z 11008KT 21/19 A3004 RMK A01 T02080190  RH  090%=      5-min Rain = 0
KPA1 130728Z 11009KT 21/19 A3004 RMK A01 T02080190  RH  090%=      5-min Rain = 0
KPA1 130729Z 11009KT 21/19 A3004 RMK A01 T02080190  RH  090%=      5-min Rain = 0
KPA1 130730Z 11008KT 21/19 A3004 RMK A01 T02070190  RH  090%=      5-min Rain = 0
KPA1 130731Z 11008KT 21/19 A3004 RMK A01 T02070190  RH  090%=      5-min Rain = 0
KPA1 130732Z 11008KT 21/19 A3004 RMK A01 T02070190  RH  090%=      5-min Rain = 0
KPA1 130733Z 10008KT 21/19 A3004 RMK A01 T02070190  RH  090%=      5-min Rain = 0
KPA1 130734Z 10007KT 21/19 A3004 RMK A01 T02070190  RH  090%=      5-min Rain = 0
KPA1 130735Z 09007KT 21/19 A3004 RMK A01 T02060190  RH  091%=      5-min Rain = 0
KPA1 130736Z 09007KT 21/19 A3004 RMK A01 T02060190  RH  091%=      5-min Rain = 0
KPA1 130737Z 08006KT 21/19 A3004 RMK A01 T02060190  RH  091%=      5-min Rain = 0
KPA1 130738Z 08006KT 21/19 A3004 RMK A01 T02060190  RH  091%=      5-min Rain = 0
KPA1 130739Z 09007KT 21/19 A3004 RMK A01 T02050190  RH  091%=      5-min Rain = 0
KPA1 130740Z 09008KT 21/19 A3004 RMK A01 T02060191  RH  091%=      5-min Rain = 0
KPA1 130741Z 09006KT 21/19 A3004 RMK A01 T02060190  RH  091%=      5-min Rain = 0
KPA1 130742Z 09008KT 21/19 A3004 RMK A01 T02060190  RH  090%=      5-min Rain = 0
KPA1 130743Z 09007KT 21/19 A3004 RMK A01 T02060190  RH  090%=      5-min Rain = 0
KPA1 130744Z 09008KT 21/19 A3004 RMK A01 T02070190  RH  090%=      5-min Rain = 0
KPA1 130745Z 09008KT 21/19 A3004 RMK A01 T02070190  RH  090%=      5-min Rain = 0
KPA1 130746Z 10009KT 21/19 A3004 RMK A01 T02080190  RH  090%=      5-min Rain = 0
KPA1 130747Z 10008KT 21/19 A3004 RMK A01 T02080190  RH  089%=      5-min Rain = 0
KPA1 130748Z 09008KT 21/19 A3004 RMK A01 T02080190  RH  089%=      5-min Rain = 0
KPA1 130749Z 10007KT 21/19 A3004 RMK A01 T02090190  RH  089%=      5-min Rain = 0
KPA1 130750Z 10007KT 21/19 A3004 RMK A01 T02090190  RH  089%=      5-min Rain = 0
KPA1 130751Z 10007KT 21/19 A3004 RMK A01 T02090191  RH  089%=      5-min Rain = 0
KPA1 130752Z 10007KT 21/19 A3004 RMK A01 T02080191  RH  089%=      5-min Rain = 0
KPA1 130753Z 09007KT 21/19 A3004 RMK A01 T02080190  RH  090%=      5-min Rain = 0
KPA1 130754Z 10006KT 21/19 A3004 RMK A01 T02080191  RH  090%=      5-min Rain = 0
KPA1 130755Z 09007KT 21/19 A3004 RMK A01 T02080190  RH  090%=      5-min Rain = 0
KPA1 130756Z 09007KT 21/19 A3004 RMK A01 T02080191  RH  090%=      5-min Rain = 0
KPA1 130757Z 09008KT 21/19 A3004 RMK A01 T02070191  RH  090%=      5-min Rain = 0
KPA1 130758Z 09007KT 21/19 A3004 RMK A01 T02070191  RH  090%=      5-min Rain = 0
KPA1 130759Z 08007KT 21/19 A3004 RMK A01 T02080191  RH  090%=      5-min Rain = 0
KPA1 130800Z 08006KT 21/19 A3004 RMK A01 T02070191  RH  090%=      5-min Rain = 0
KPA1 130801Z 08006KT 21/19 A3004 RMK A01 T02060191  RH  091%=      5-min Rain = 0
KPA1 130802Z 08006KT 21/19 A3004 RMK A01 T02060191  RH  091%=      5-min Rain = 0
KPA1 130803Z 07006KT 21/19 A3004 RMK A01 T02050192  RH  092%=      5-min Rain = 0
KPA1 130804Z 06007KT 20/19 A3004 RMK A01 T02040192  RH  093%=      5-min Rain = 0
KPA1 130805Z 06007KT 20/19 A3004 RMK A01 T02030192  RH  093%=      5-min Rain = 0
KPA1 130806Z 06006KT 20/19 A3004 RMK A01 T02030192  RH  093%=      5-min Rain = 0
KPA1 130807Z 06007KT 20/19 A3004 RMK A01 T02020192  RH  094%=      5-min Rain = 0
KPA1 130808Z 07006KT 20/19 A3004 RMK A01 T02010192  RH  094%=      5-min Rain = 0
KPA1 130809Z 07006KT 20/19 A3004 RMK A01 T02010192  RH  095%=      5-min Rain = 0
KPA1 130810Z 07006KT 20/19 A3004 RMK A01 T02000192  RH  095%=      5-min Rain = 0
KPA1 130811Z 07006KT 20/19 A3004 RMK A01 T02000192  RH  095%=      5-min Rain = 0
KPA1 130812Z 07006KT 20/19 A3004 RMK A01 T02000192  RH  095%=      5-min Rain = 0
KPA1 130813Z 07006KT 20/19 A3004 RMK A01 T02000193  RH  095%=      5-min Rain = 0
KPA1 130814Z 07006KT 20/19 A3004 RMK A01 T02000193  RH  096%=      5-min Rain = 0
KPA1 130815Z 08005KT 20/19 A3004 RMK A01 T02000193  RH  096%=      5-min Rain = 0
KPA1 130816Z 08006KT 20/19 A3004 RMK A01 T02000193  RH  096%=      5-min Rain = 0
KPA1 130817Z 08006KT 20/19 A3004 RMK A01 T02000193  RH  096%=      5-min Rain = 0
KPA1 130818Z 08005KT 20/19 A3004 RMK A01 T02000193  RH  095%=      5-min Rain = 0
KPA1 130819Z 07005KT 20/19 A3004 RMK A01 T02000193  RH  095%=      5-min Rain = 0
KPA1 130820Z 07006KT 20/19 A3004 RMK A01 T02000193  RH  096%=      5-min Rain = 0
KPA1 130821Z 07006KT 20/19 A3004 RMK A01 T02000193  RH  096%=      5-min Rain = 0
KPA1 130822Z 07006KT 20/19 A3004 RMK A01 T02000193  RH  096%=      5-min Rain = 0
KPA1 130823Z 07006KT 20/19 A3004 RMK A01 T02000193  RH  096%=      5-min Rain = 0
KPA1 130824Z 07005KT 20/19 A3004 RMK A01 T02000193  RH  096%=      5-min Rain = 0
KPA1 130825Z 07005KT 20/19 A3004 RMK A01 T02000193  RH  096%=      5-min Rain = 0
KPA1 130826Z 07005KT 20/19 A3004 RMK A01 T02000193  RH  096%=      5-min Rain = 0
KPA1 130827Z 08006KT 20/19 A3004 RMK A01 T02000193  RH  096%=      5-min Rain = 0
KPA1 130828Z 08006KT 20/19 A3004 RMK A01 T01990193  RH  096%=      5-min Rain = 0
KPA1 130829Z 08006KT 20/19 A3004 RMK A01 T02000194  RH  096%=      5-min Rain = 0
KPA1 130830Z 08005KT 20/19 A3004 RMK A01 T02000194  RH  096%=      5-min Rain = 0
KPA1 130831Z 08005KT 20/19 A3004 RMK A01 T02000194  RH  096%=      5-min Rain = 0
KPA1 130832Z 09005KT 20/19 A3004 RMK A01 T02000194  RH  096%=      5-min Rain = 0
KPA1 130833Z 08005KT 20/19 A3004 RMK A01 T02000193  RH  096%=      5-min Rain = 0
KPA1 130834Z 08004KT 20/19 A3004 RMK A01 T02000193  RH  096%=      5-min Rain = 0
KPA1 130835Z 08005KT 20/19 A3004 RMK A01 T01990193  RH  096%=      5-min Rain = 0
KPA1 130836Z 08005KT 20/19 A3004 RMK A01 T01990193  RH  096%=      5-min Rain = 0
KPA1 130837Z 08004KT 20/19 A3004 RMK A01 T01990193  RH  097%=      5-min Rain = 0
KPA1 130838Z 09004KT 20/19 A3004 RMK A01 T01980193  RH  097%=      5-min Rain = 0
KPA1 130839Z 09004KT 20/19 A3004 RMK A01 T01980193  RH  097%=      5-min Rain = 0
KPA1 130840Z 09004KT 20/19 A3004 RMK A01 T01980193  RH  097%=      5-min Rain = 0
KPA1 130841Z 10004KT 20/19 A3004 RMK A01 T01980193  RH  097%=      5-min Rain = 0
KPA1 130842Z 11004KT 20/19 A3004 RMK A01 T01980193  RH  097%=      5-min Rain = 0
KPA1 130843Z 11004KT 20/19 A3004 RMK A01 T01980193  RH  097%=      5-min Rain = 0
KPA1 130844Z 10004KT 20/19 A3004 RMK A01 T01980193  RH  097%=      5-min Rain = 0
KPA1 130845Z 10004KT 20/19 A3004 RMK A01 T01980194  RH  097%=      5-min Rain = 0
KPA1 130846Z 09004KT 20/19 A3004 RMK A01 T01980194  RH  097%=      5-min Rain = 0
KPA1 130847Z 09004KT 20/19 A3004 RMK A01 T01980193  RH  097%=      5-min Rain = 0
KPA1 130848Z 08004KT 20/19 A3004 RMK A01 T01980193  RH  097%=      5-min Rain = 0
KPA1 130849Z 08004KT 20/19 A3004 RMK A01 T01980193  RH  097%=      5-min Rain = 0
KPA1 130850Z 08004KT 20/19 A3004 RMK A01 T01980194  RH  097%=      5-min Rain = 0
KPA1 130851Z 07005KT 20/19 A3004 RMK A01 T01980193  RH  097%=      5-min Rain = 0
KPA1 130852Z 07005KT 20/19 A3004 RMK A01 T01980193  RH  097%=      5-min Rain = 0
KPA1 130853Z 06005KT 20/19 A3004 RMK A01 T01980193  RH  097%=      5-min Rain = 0
KPA1 130854Z 06005KT 20/19 A3005 RMK A01 T01980193  RH  097%=      5-min Rain = 0
KPA1 130855Z 05004KT 20/19 A3005 RMK A01 T01980193  RH  097%=      5-min Rain = 0
KPA1 130856Z 05005KT 20/19 A3005 RMK A01 T01980193  RH  097%=      5-min Rain = 0
KPA1 130857Z 06005KT 20/19 A3005 RMK A01 T01970193  RH  097%=      5-min Rain = 0
KPA1 130858Z 05004KT 20/19 A3005 RMK A01 T01970193  RH  097%=      5-min Rain = 0
KPA1 130859Z 05004KT 20/19 A3005 RMK A01 T01970192  RH  097%=      5-min Rain = 0
KPA1 130900Z 05004KT 20/19 A3005 RMK A01 T01970192  RH  097%=      5-min Rain = 0
KPA1 130901Z 05004KT 20/19 A3005 RMK A01 T01960192  RH  097%=      5-min Rain = 0
KPA1 130902Z 05004KT 20/19 A3005 RMK A01 T01960192  RH  098%=      5-min Rain = 0
KPA1 130903Z 04004KT 20/19 A3005 RMK A01 T01960192  RH  098%=      5-min Rain = 0
KPA1 130904Z 05003KT 20/19 A3005 RMK A01 T01950192  RH  098%=      5-min Rain = 0
KPA1 130905Z 05003KT 20/19 A3005 RMK A01 T01950192  RH  098%=      5-min Rain = 0
KPA1 130906Z 05003KT 20/19 A3005 RMK A01 T01950192  RH  098%=      5-min Rain = 0
KPA1 130907Z 06003KT 20/19 A3005 RMK A01 T01950192  RH  098%=      5-min Rain = 0
KPA1 130908Z 06002KT 20/19 A3005 RMK A01 T01950192  RH  098%=      5-min Rain = 0
KPA1 130909Z 07003KT 19/19 A3005 RMK A01 T01940191  RH  098%=      5-min Rain = 0
KPA1 130910Z 07002KT 20/19 A3005 RMK A01 T01950192  RH  098%=      5-min Rain = 0
KPA1 130911Z 07002KT 20/19 A3005 RMK A01 T01950192  RH  098%=      5-min Rain = 0
KPA1 130912Z 07002KT 20/19 A3005 RMK A01 T01950192  RH  098%=      5-min Rain = 0
KPA1 130913Z 06002KT 19/19 A3005 RMK A01 T01940192  RH  098%=      5-min Rain = 0
KPA1 130914Z 05002KT 19/19 A3005 RMK A01 T01940191  RH  098%=      5-min Rain = 0
KPA1 130915Z 04002KT 20/19 A3005 RMK A01 T01950191  RH  098%=      5-min Rain = 0
KPA1 130916Z 03002KT 19/19 A3005 RMK A01 T01940191  RH  098%=      5-min Rain = 0
KPA1 130917Z 02002KT 19/19 A3005 RMK A01 T01940191  RH  098%=      5-min Rain = 0
KPA1 130918Z 01003KT 19/19 A3005 RMK A01 T01940191  RH  098%=      5-min Rain = 0
KPA1 130919Z 00003KT 19/19 A3005 RMK A01 T01940190  RH  098%=      5-min Rain = 0
KPA1 130920Z 00003KT 19/19 A3005 RMK A01 T01930190  RH  098%=      5-min Rain = 0
KPA1 130921Z 00004KT 19/19 A3005 RMK A01 T01930190  RH  098%=      5-min Rain = 0
KPA1 130922Z 01004KT 19/19 A3005 RMK A01 T01930191  RH  098%=      5-min Rain = 0
KPA1 130923Z 02004KT 19/19 A3005 RMK A01 T01930191  RH  099%=      5-min Rain = 0
KPA1 130924Z 02004KT 19/19 A3005 RMK A01 T01940192  RH  099%=      5-min Rain = 0
KPA1 130925Z 02004KT 19/19 A3005 RMK A01 T01940192  RH  099%=      5-min Rain = 0
KPA1 130926Z 02004KT 19/19 A3005 RMK A01 T01940192  RH  099%=      5-min Rain = 0
KPA1 130927Z 03004KT 19/19 A3005 RMK A01 T01940192  RH  099%=      5-min Rain = 0
KPA1 130928Z 03004KT 19/19 A3005 RMK A01 T01940192  RH  099%=      5-min Rain = 0
KPA1 130929Z 03004KT 20/19 A3005 RMK A01 T01950193  RH  099%=      5-min Rain = 0
KPA1 130930Z 03004KT 20/19 A3005 RMK A01 T01950193  RH  099%=      5-min Rain = 0
KPA1 130931Z 03004KT 20/19 A3006 RMK A01 T01950193  RH  099%=      5-min Rain = 0
KPA1 130932Z 03004KT 20/19 A3006 RMK A01 T01950193  RH  099%=      5-min Rain = 0
KPA1 130933Z 03004KT 20/19 A3006 RMK A01 T01950193  RH  099%=      5-min Rain = 0
KPA1 130934Z 02004KT 20/19 A3006 RMK A01 T01950193  RH  099%=      5-min Rain = 0
KPA1 130935Z 02004KT 20/19 A3006 RMK A01 T01950193  RH  099%=      5-min Rain = 0
KPA1 130936Z 02003KT 20/19 A3006 RMK A01 T01950193  RH  099%=      5-min Rain = 0
KPA1 130937Z 01003KT 20/19 A3006 RMK A01 T01950193  RH  099%=      5-min Rain = 0
KPA1 130938Z 01004KT 20/19 A3006 RMK A01 T01950193  RH  099%=      5-min Rain = 0
KPA1 130939Z 00003KT 20/19 A3006 RMK A01 T01950193  RH  098%=      5-min Rain = 0
KPA1 130940Z 01003KT 20/19 A3006 RMK A01 T01960193  RH  098%=      5-min Rain = 0
KPA1 130941Z 01003KT 20/19 A3006 RMK A01 T01950193  RH  098%=      5-min Rain = 0
KPA1 130942Z 01002KT 20/19 A3006 RMK A01 T01960193  RH  099%=      5-min Rain = 0
KPA1 130943Z 36003KT 20/19 A3006 RMK A01 T01960193  RH  098%=      5-min Rain = 0
KPA1 130944Z 35003KT 20/19 A3006 RMK A01 T01960194  RH  098%=      5-min Rain = 0
KPA1 130945Z 34003KT 20/19 A3006 RMK A01 T01970194  RH  098%=      5-min Rain = 0
KPA1 130946Z 34004KT 20/19 A3006 RMK A01 T01970194  RH  098%=      5-min Rain = 0
KPA1 130947Z 33005KT 20/19 A3006 RMK A01 T01970194  RH  098%=      5-min Rain = 0
KPA1 130948Z 32004KT 20/19 A3006 RMK A01 T01960193  RH  098%=      5-min Rain = 0
KPA1 130949Z 32004KT 20/19 A3006 RMK A01 T01950192  RH  098%=      5-min Rain = 0
KPA1 130950Z 32004KT 20/19 A3006 RMK A01 T01950192  RH  098%=      5-min Rain = 0
KPA1 130951Z 31004KT 19/19 A3006 RMK A01 T01940191  RH  098%=      5-min Rain = 0
KPA1 130952Z 31005KT 19/19 A3006 RMK A01 T01930190  RH  098%=      5-min Rain = 0
KPA1 130953Z 31006KT 19/19 A3006 RMK A01 T01930190  RH  098%=      5-min Rain = 0
KPA1 130954Z 31006KT 19/19 A3006 RMK A01 T01930190  RH  098%=      5-min Rain = 0
KPA1 130955Z 31005KT 19/19 A3006 RMK A01 T01930191  RH  099%=      5-min Rain = 0
KPA1 130956Z 31005KT 19/19 A3006 RMK A01 T01920190  RH  099%=      5-min Rain = 0
KPA1 130957Z 31005KT 19/19 A3006 RMK A01 T01920191  RH  099%=      5-min Rain = 0
KPA1 130958Z 32006KT 19/19 A3006 RMK A01 T01920191  RH  099%=      5-min Rain = 0
KPA1 130959Z 32006KT 19/19 A3007 RMK A01 T01920190  RH  099%=      5-min Rain = 0
KPA1 131000Z 32006KT 19/19 A3006 RMK A01 T01920190  RH  099%=      5-min Rain = 0
KPA1 131001Z 32006KT 19/19 A3006 RMK A01 T01910190  RH  099%=      5-min Rain = 0
KPA1 131002Z 32006KT 19/19 A3006 RMK A01 T01910189  RH  099%=      5-min Rain = 0
KPA1 131003Z 31006KT 19/19 A3006 RMK A01 T01910189  RH  099%=      5-min Rain = 0
KPA1 131004Z 31007KT 19/19 A3006 RMK A01 T01910189  RH  099%=      5-min Rain = 0
KPA1 131005Z 32007KT 19/19 A3006 RMK A01 T01900189  RH  099%=      5-min Rain = 0
KPA1 131006Z 32007KT 19/19 A3006 RMK A01 T01910189  RH  099%=      5-min Rain = 0
KPA1 131007Z 33007KT 19/19 A3006 RMK A01 T01910189  RH  099%=      5-min Rain = 0
KPA1 131008Z 33007KT 19/19 A3007 RMK A01 T01900189  RH  099%=      5-min Rain = 0
KPA1 131009Z 33007KT 19/19 A3007 RMK A01 T01900189  RH  099%=      5-min Rain = 0
KPA1 131010Z 33006KT 19/19 A3007 RMK A01 T01900189  RH  099%=      5-min Rain = 0
KPA1 131011Z 33006KT 19/19 A3007 RMK A01 T01900189  RH  099%=      5-min Rain = 0
KPA1 131012Z 33006KT 19/19 A3007 RMK A01 T01900189  RH  099%=      5-min Rain = 0
KPA1 131013Z 33006KT 19/19 A3007 RMK A01 T01900189  RH  100%=      5-min Rain = 0
KPA1 131014Z 33006KT 19/19 A3007 RMK A01 T01900190  RH  100%=      5-min Rain = 0
KPA1 131015Z 34006KT 19/19 A3007 RMK A01 T01900189  RH  100%=      5-min Rain = 0
KPA1 131016Z 33006KT 19/19 A3007 RMK A01 T01900190  RH  100%=      5-min Rain = 0
KPA1 131017Z 34006KT 19/19 A3006 RMK A01 T01910191  RH  100%=      5-min Rain = 0
KPA1 131018Z 34006KT 19/19 A3006 RMK A01 T01920191  RH  100%=      5-min Rain = 0
KPA1 131019Z 34005KT 19/19 A3006 RMK A01 T01920192  RH  100%=      5-min Rain = 0
KPA1 131020Z 33005KT 19/19 A3006 RMK A01 T01920192  RH  100%=      5-min Rain = 0
KPA1 131021Z 33005KT 19/19 A3006 RMK A01 T01930193  RH  100%=      5-min Rain = 0
KPA1 131022Z 33005KT 19/19 A3006 RMK A01 T01930193  RH  100%=      5-min Rain = 0
KPA1 131023Z 33005KT 19/19 A3006 RMK A01 T01930193  RH  100%=      5-min Rain = 0
KPA1 131024Z 34005KT 19/19 A3006 RMK A01 T01930193  RH  100%=      5-min Rain = 0
KPA1 131025Z 34005KT 19/19 A3006 RMK A01 T01930193  RH  100%=      5-min Rain = 0
KPA1 131026Z 33005KT 19/19 A3006 RMK A01 T01930193  RH  100%=      5-min Rain = 0
KPA1 131027Z 33005KT 19/19 A3006 RMK A01 T01930193  RH  100%=      5-min Rain = 0
KPA1 131028Z 33005KT 19/19 A3006 RMK A01 T01930193  RH  100%=      5-min Rain = 0
KPA1 131029Z 33005KT 19/19 A3006 RMK A01 T01930193  RH  100%=      5-min Rain = 0
KPA1 131030Z 32005KT 19/19 A3006 RMK A01 T01930193  RH  100%=      5-min Rain = 0
KPA1 131031Z 32005KT 19/19 A3006 RMK A01 T01930193  RH  100%=      5-min Rain = 0
KPA1 131032Z 32005KT 19/19 A3006 RMK A01 T01930193  RH  100%=      5-min Rain = 0
KPA1 131033Z 32005KT 19/19 A3006 RMK A01 T01930193  RH  100%=      5-min Rain = 0
KPA1 131034Z 32004KT 19/19 A3006 RMK A01 T01930192  RH  100%=      5-min Rain = 0
KPA1 131035Z 32004KT 19/19 A3006 RMK A01 T01920192  RH  100%=      5-min Rain = 0
KPA1 131036Z 32004KT 19/19 A3006 RMK A01 T01920192  RH  100%=      5-min Rain = 0
KPA1 131037Z 33004KT 19/19 A3006 RMK A01 T01920191  RH  099%=      5-min Rain = 0
KPA1 131038Z 32004KT 19/19 A3007 RMK A01 T01920191  RH  099%=      5-min Rain = 0
KPA1 131039Z 31004KT 19/19 A3007 RMK A01 T01920191  RH  100%=      5-min Rain = 0
KPA1 131040Z 31003KT 19/19 A3007 RMK A01 T01920191  RH  099%=      5-min Rain = 0
KPA1 131041Z 31003KT 19/19 A3007 RMK A01 T01910190  RH  099%=      5-min Rain = 0
KPA1 131042Z 32004KT 19/19 A3007 RMK A01 T01910190  RH  099%=      5-min Rain = 0
KPA1 131043Z 32004KT 19/19 A3007 RMK A01 T01910190  RH  099%=      5-min Rain = 0
KPA1 131044Z 31004KT 19/19 A3007 RMK A01 T01910190  RH  099%=      5-min Rain = 0
KPA1 131045Z 31003KT 19/19 A3007 RMK A01 T01900189  RH  099%=      5-min Rain = 0
KPA1 131046Z 31003KT 19/19 A3007 RMK A01 T01900189  RH  099%=      5-min Rain = 0
KPA1 131047Z 32002KT 19/19 A3007 RMK A01 T01900189  RH  099%=      5-min Rain = 0
KPA1 131048Z 32003KT 19/19 A3007 RMK A01 T01890188  RH  099%=      5-min Rain = 0
KPA1 131049Z 33003KT 19/19 A3007 RMK A01 T01890188  RH  099%=      5-min Rain = 0
KPA1 131050Z 32003KT 19/19 A3007 RMK A01 T01890188  RH  099%=      5-min Rain = 0
KPA1 131051Z 32003KT 19/19 A3007 RMK A01 T01890187  RH  099%=      5-min Rain = 0
KPA1 131052Z 33003KT 19/19 A3007 RMK A01 T01890187  RH  099%=      5-min Rain = 0
KPA1 131053Z 33003KT 19/19 A3007 RMK A01 T01880187  RH  099%=      5-min Rain = 0
KPA1 131054Z 33003KT 19/19 A3007 RMK A01 T01880187  RH  099%=      5-min Rain = 0
KPA1 131055Z 32003KT 19/19 A3007 RMK A01 T01870186  RH  099%=      5-min Rain = 0
KPA1 131056Z 32003KT 19/19 A3007 RMK A01 T01870186  RH  099%=      5-min Rain = 0
KPA1 131057Z 31003KT 19/19 A3007 RMK A01 T01870186  RH  099%=      5-min Rain = 0
KPA1 131058Z 31003KT 19/19 A3007 RMK A01 T01870185  RH  099%=      5-min Rain = 0
KPA1 131059Z 32002KT 19/19 A3007 RMK A01 T01870186  RH  099%=      5-min Rain = 0
KPA1 131100Z 32002KT 19/19 A3007 RMK A01 T01870186  RH  099%=      5-min Rain = 0
KPA1 131101Z 32002KT 19/19 A3007 RMK A01 T01870186  RH  099%=      5-min Rain = 0
KPA1 131102Z 32002KT 19/19 A3007 RMK A01 T01860185  RH  099%=      5-min Rain = 0
KPA1 131103Z 32002KT 19/19 A3007 RMK A01 T01860185  RH  099%=      5-min Rain = 0
KPA1 131104Z 32002KT 19/19 A3007 RMK A01 T01860185  RH  099%=      5-min Rain = 0
KPA1 131105Z 33002KT 19/19 A3007 RMK A01 T01860185  RH  099%=      5-min Rain = 0
KPA1 131106Z 33003KT 19/19 A3007 RMK A01 T01860186  RH  099%=      5-min Rain = 0
KPA1 131107Z 33003KT 19/19 A3007 RMK A01 T01860185  RH  099%=      5-min Rain = 0
KPA1 131108Z 33003KT 19/19 A3007 RMK A01 T01860185  RH  099%=      5-min Rain = 0
KPA1 131109Z 33003KT 19/19 A3007 RMK A01 T01860185  RH  100%=      5-min Rain = 0
KPA1 131110Z 33003KT 19/19 A3008 RMK A01 T01860185  RH  100%=      5-min Rain = 0
KPA1 131111Z 33003KT 19/19 A3008 RMK A01 T01860185  RH  100%=      5-min Rain = 0
KPA1 131112Z 32003KT 19/19 A3008 RMK A01 T01860185  RH  099%=      5-min Rain = 0
KPA1 131113Z 32004KT 19/19 A3008 RMK A01 T01860185  RH  099%=      5-min Rain = 0
KPA1 131114Z 32004KT 19/19 A3008 RMK A01 T01860185  RH  099%=      5-min Rain = 0
KPA1 131115Z 33004KT 19/19 A3008 RMK A01 T01850185  RH  099%=      5-min Rain = 0
KPA1 131116Z 33004KT 19/19 A3008 RMK A01 T01850185  RH  099%=      5-min Rain = 0
KPA1 131117Z 33005KT 19/18 A3008 RMK A01 T01850184  RH  099%=      5-min Rain = 0
KPA1 131118Z 33005KT 19/18 A3008 RMK A01 T01850184  RH  099%=      5-min Rain = 0
KPA1 131119Z 33006KT 19/18 A3008 RMK A01 T01850184  RH  100%=      5-min Rain = 0
KPA1 131120Z 33006KT 19/18 A3008 RMK A01 T01850184  RH  100%=      5-min Rain = 0
KPA1 131121Z 33005KT 19/19 A3008 RMK A01 T01850185  RH  100%=      5-min Rain = 0
KPA1 131122Z 33005KT 19/19 A3008 RMK A01 T01850185  RH  100%=      5-min Rain = 0
KPA1 131123Z 33005KT 19/19 A3008 RMK A01 T01850185  RH  100%=      5-min Rain = 0
KPA1 131124Z 33004KT 19/19 A3008 RMK A01 T01860185  RH  100%=      5-min Rain = 0
KPA1 131125Z 33003KT 19/19 A3008 RMK A01 T01860185  RH  100%=      5-min Rain = 0
KPA1 131126Z 33003KT 19/19 A3008 RMK A01 T01860185  RH  100%=      5-min Rain = 0
KPA1 131127Z 33004KT 19/19 A3008 RMK A01 T01860185  RH  100%=      5-min Rain = 0
KPA1 131128Z 34004KT 19/19 A3008 RMK A01 T01860185  RH  100%=      5-min Rain = 0
KPA1 131129Z 34005KT 19/19 A3008 RMK A01 T01850185  RH  100%=      5-min Rain = 0
KPA1 131130Z 34005KT 19/19 A3009 RMK A01 T01860185  RH  100%=      5-min Rain = 0
KPA1 131131Z 34005KT 19/19 A3009 RMK A01 T01850185  RH  100%=      5-min Rain = 0
KPA1 131132Z 34005KT 19/19 A3009 RMK A01 T01850185  RH  100%=      5-min Rain = 0
KPA1 131133Z 34004KT 19/19 A3009 RMK A01 T01850185  RH  100%=      5-min Rain = 0
KPA1 131134Z 34003KT 19/19 A3009 RMK A01 T01860185  RH  100%=      5-min Rain = 0
KPA1 131135Z 34003KT 19/19 A3009 RMK A01 T01850185  RH  100%=      5-min Rain = 0
KPA1 131136Z 33003KT 19/19 A3009 RMK A01 T01850185  RH  100%=      5-min Rain = 0
KPA1 131137Z 33004KT 19/19 A3009 RMK A01 T01860185  RH  100%=      5-min Rain = 0
KPA1 131138Z 33004KT 19/19 A3009 RMK A01 T01850185  RH  100%=      5-min Rain = 0
KPA1 131139Z 33005KT 19/19 A3009 RMK A01 T01850185  RH  100%=      5-min Rain = 0
KPA1 131140Z 33004KT 19/19 A3009 RMK A01 T01850185  RH  100%=      5-min Rain = 0
KPA1 131141Z 33004KT 19/19 A3009 RMK A01 T01850185  RH  100%=      5-min Rain = 0
KPA1 131142Z 33005KT 19/19 A3009 RMK A01 T01850185  RH  100%=      5-min Rain = 0
KPA1 131143Z 33004KT 19/19 A3009 RMK A01 T01850185  RH  100%=      5-min Rain = 0
KPA1 131144Z 32004KT 19/19 A3009 RMK A01 T01860185  RH  100%=      5-min Rain = 0
KPA1 131145Z 32005KT 19/19 A3009 RMK A01 T01860185  RH  100%=      5-min Rain = 0
KPA1 131146Z 32005KT 19/19 A3009 RMK A01 T01850185  RH  100%=      5-min Rain = 0
KPA1 131147Z 32005KT 19/19 A3009 RMK A01 T01850185  RH  100%=      5-min Rain = 0
KPA1 131148Z 32005KT 19/19 A3009 RMK A01 T01850185  RH  100%=      5-min Rain = 0
KPA1 131149Z 32004KT 19/19 A3009 RMK A01 T01850185  RH  100%=      5-min Rain = 0
KPA1 131150Z 32005KT 18/18 A3009 RMK A01 T01840184  RH  100%=      5-min Rain = 0
KPA1 131151Z 32005KT 18/18 A3009 RMK A01 T01840184  RH  100%=      5-min Rain = 0
KPA1 131152Z 32005KT 19/18 A3009 RMK A01 T01850184  RH  100%=      5-min Rain = 0
KPA1 131153Z 32005KT 18/18 A3009 RMK A01 T01840184  RH  100%=      5-min Rain = 0
KPA1 131154Z 32004KT 18/18 A3009 RMK A01 T01840184  RH  100%=      5-min Rain = 0
KPA1 131155Z 32004KT 18/18 A3009 RMK A01 T01830183  RH  100%=      5-min Rain = 0
KPA1 131156Z 33005KT 18/18 A3009 RMK A01 T01830183  RH  100%=      5-min Rain = 0
KPA1 131157Z 33004KT 18/18 A301 RMK A01 T01830183  RH  100%=      5-min Rain = 0
KPA1 131158Z 33005KT 18/18 A301 RMK A01 T01830183  RH  100%=      5-min Rain = 0
KPA1 131159Z 33005KT 18/18 A301 RMK A01 T01830183  RH  100%=      5-min Rain = 0
KPA1 131200Z 34005KT 18/18 A301 RMK A01 T01830182  RH  100%=      5-min Rain = 0
KPA1 131201Z 33005KT 18/18 A301 RMK A01 T01830183  RH  100%=      5-min Rain = 0
KPA1 131202Z 34005KT 18/18 A301 RMK A01 T01830183  RH  100%=      5-min Rain = 0
KPA1 131203Z 34005KT 18/18 A301 RMK A01 T01830183  RH  100%=      5-min Rain = 0
KPA1 131204Z 35005KT 18/18 A301 RMK A01 T01830183  RH  100%=      5-min Rain = 0
KPA1 131205Z 35004KT 18/18 A301 RMK A01 T01830183  RH  100%=      5-min Rain = 0
KPA1 131206Z 35004KT 18/18 A301 RMK A01 T01840184  RH  100%=      5-min Rain = 0
KPA1 131207Z 35004KT 18/18 A301 RMK A01 T01840184  RH  100%=      5-min Rain = 0
KPA1 131208Z 35004KT 18/18 A301 RMK A01 T01840184  RH  100%=      5-min Rain = 0
KPA1 131209Z 34005KT 19/19 A301 RMK A01 T01850185  RH  100%=      5-min Rain = 0
KPA1 131210Z 34004KT 19/19 A301 RMK A01 T01860186  RH  100%=      5-min Rain = 0
KPA1 131211Z 34005KT 19/19 A301 RMK A01 T01860186  RH  100%=      5-min Rain = 0
KPA1 131212Z 34005KT 19/19 A301 RMK A01 T01870187  RH  100%=      5-min Rain = 0
KPA1 131213Z 33005KT 19/19 A301 RMK A01 T01870188  RH  100%=      5-min Rain = 0
KPA1 131214Z 33005KT 19/19 A301 RMK A01 T01870187  RH  100%=      5-min Rain = 0
KPA1 131215Z 33005KT 19/19 A301 RMK A01 T01880188  RH  100%=      5-min Rain = 0
KPA1 131216Z 33005KT 19/19 A301 RMK A01 T01870187  RH  100%=      5-min Rain = 0
KPA1 131217Z 33005KT 19/19 A301 RMK A01 T01870187  RH  100%=      5-min Rain = 0
KPA1 131218Z 33006KT 19/19 A301 RMK A01 T01870187  RH  100%=      5-min Rain = 0
KPA1 131219Z 33006KT 19/19 A301 RMK A01 T01870187  RH  100%=      5-min Rain = 0
KPA1 131220Z 33005KT 19/19 A301 RMK A01 T01870188  RH  100%=      5-min Rain = 0
KPA1 131221Z 33005KT 19/19 A301 RMK A01 T01870187  RH  100%=      5-min Rain = 0
KPA1 131222Z 33005KT 19/19 A301 RMK A01 T01870187  RH  100%=      5-min Rain = 0
KPA1 131223Z 33005KT 19/19 A301 RMK A01 T01870187  RH  100%=      5-min Rain = 0
KPA1 131224Z 33004KT 19/19 A301 RMK A01 T01870187  RH  100%=      5-min Rain = 0
KPA1 131225Z 33004KT 19/19 A301 RMK A01 T01870187  RH  100%=      5-min Rain = 0
KPA1 131226Z 33004KT 19/19 A301 RMK A01 T01870187  RH  100%=      5-min Rain = 0
KPA1 131227Z 34004KT 19/19 A301 RMK A01 T01870187  RH  100%=      5-min Rain = 0
KPA1 131228Z 33004KT 19/19 A301 RMK A01 T01870187  RH  100%=      5-min Rain = 0
KPA1 131229Z 34004KT 19/19 A301 RMK A01 T01870187  RH  100%=      5-min Rain = 0
KPA1 131230Z 33004KT 19/19 A301 RMK A01 T01880187  RH  100%=      5-min Rain = 0
KPA1 131231Z 33004KT 19/19 A301 RMK A01 T01880187  RH  100%=      5-min Rain = 0
KPA1 131232Z 33004KT 19/19 A3011 RMK A01 T01880187  RH  100%=      5-min Rain = 0
KPA1 131233Z 32004KT 19/19 A3011 RMK A01 T01880187  RH  100%=      5-min Rain = 0
KPA1 131234Z 33004KT 19/19 A3011 RMK A01 T01880187  RH  100%=      5-min Rain = 0
KPA1 131235Z 33004KT 19/19 A3011 RMK A01 T01880187  RH  100%=      5-min Rain = 0
KPA1 131236Z 33004KT 19/19 A3011 RMK A01 T01880187  RH  100%=      5-min Rain = 0
KPA1 131237Z 33004KT 19/19 A3011 RMK A01 T01880187  RH  100%=      5-min Rain = 0
KPA1 131238Z 34004KT 19/19 A3011 RMK A01 T01880187  RH  100%=      5-min Rain = 0
KPA1 131239Z 34004KT 19/19 A3011 RMK A01 T01880187  RH  100%=      5-min Rain = 0
KPA1 131240Z 34003KT 19/19 A3011 RMK A01 T01880187  RH  100%=      5-min Rain = 0
KPA1 131241Z 35003KT 19/19 A3011 RMK A01 T01880187  RH  099%=      5-min Rain = 0
KPA1 131242Z 35003KT 19/19 A3011 RMK A01 T01880187  RH  099%=      5-min Rain = 0
KPA1 131243Z 35003KT 19/19 A3011 RMK A01 T01880187  RH  099%=      5-min Rain = 0
KPA1 131244Z 35003KT 19/19 A3011 RMK A01 T01890188  RH  099%=      5-min Rain = 0
KPA1 131245Z 35003KT 19/19 A3011 RMK A01 T01900189  RH  099%=      5-min Rain = 0
KPA1 131246Z 35003KT 19/19 A3011 RMK A01 T01900190  RH  099%=      5-min Rain = 0
KPA1 131247Z 35003KT 19/19 A3011 RMK A01 T01910190  RH  099%=      5-min Rain = 0
KPA1 131248Z 36003KT 19/19 A3011 RMK A01 T01920191  RH  099%=      5-min Rain = 0
KPA1 131249Z 36004KT 19/19 A3011 RMK A01 T01930192  RH  099%=      5-min Rain = 0
KPA1 131250Z 36003KT 19/19 A3011 RMK A01 T01940193  RH  099%=      5-min Rain = 0
KPA1 131251Z 35003KT 19/19 A3011 RMK A01 T01940193  RH  099%=      5-min Rain = 0
KPA1 131252Z 35004KT 19/19 A3011 RMK A01 T01940193  RH  099%=      5-min Rain = 0
KPA1 131253Z 34004KT 20/19 A3011 RMK A01 T01950193  RH  099%=      5-min Rain = 0
KPA1 131254Z 34004KT 20/19 A3011 RMK A01 T01950193  RH  099%=      5-min Rain = 0
KPA1 131255Z 34004KT 20/19 A3011 RMK A01 T01950193  RH  099%=      5-min Rain = 0
KPA1 131256Z 34003KT 20/19 A3011 RMK A01 T01960193  RH  098%=      5-min Rain = 0
KPA1 131257Z 33004KT 20/19 A3011 RMK A01 T01960194  RH  098%=      5-min Rain = 0
KPA1 131258Z 33005KT 20/19 A3011 RMK A01 T01970194  RH  098%=      5-min Rain = 0
KPA1 131259Z 33004KT 20/19 A3011 RMK A01 T01970194  RH  098%=      5-min Rain = 0
KPA1 131300Z 34004KT 20/19 A3011 RMK A01 T01970193  RH  098%=      5-min Rain = 0
KPA1 131301Z 34004KT 20/19 A3011 RMK A01 T01970193  RH  098%=      5-min Rain = 0
KPA1 131302Z 33003KT 20/19 A3011 RMK A01 T01970193  RH  098%=      5-min Rain = 0
KPA1 131303Z 34003KT 20/19 A3011 RMK A01 T01980194  RH  098%=      5-min Rain = 0
KPA1 131304Z 35003KT 20/19 A3011 RMK A01 T01980194  RH  097%=      5-min Rain = 0
KPA1 131305Z 35003KT 20/19 A3011 RMK A01 T01990194  RH  097%=      5-min Rain = 0
KPA1 131306Z 00002KT 20/20 A3011 RMK A01 T01990195  RH  097%=      5-min Rain = 0
KPA1 131307Z 36003KT 20/20 A3011 RMK A01 T02000196  RH  097%=      5-min Rain = 0
KPA1 131308Z 00003KT 20/20 A3011 RMK A01 T02000195  RH  097%=      5-min Rain = 0
KPA1 131309Z 01004KT 20/20 A3011 RMK A01 T02010195  RH  097%=      5-min Rain = 0
KPA1 131310Z 36004KT 20/20 A3011 RMK A01 T02000195  RH  096%=      5-min Rain = 0
KPA1 131311Z 01003KT 20/20 A3011 RMK A01 T02010196  RH  097%=      5-min Rain = 0
KPA1 131312Z 02005KT 20/20 A3011 RMK A01 T02020196  RH  096%=      5-min Rain = 0
KPA1 131313Z 00005KT 20/20 A3012 RMK A01 T02020195  RH  096%=      5-min Rain = 0
KPA1 131314Z 36005KT 20/20 A3012 RMK A01 T02020196  RH  096%=      5-min Rain = 0
KPA1 131315Z 00005KT 20/20 A3012 RMK A01 T02020195  RH  096%=      5-min Rain = 0
KPA1 131316Z 36004KT 20/20 A3012 RMK A01 T02030196  RH  096%=      5-min Rain = 0
KPA1 131317Z 01004KT 20/20 A3012 RMK A01 T02030196  RH  096%=      5-min Rain = 0
KPA1 131318Z 01006KT 20/20 A3012 RMK A01 T02040196  RH  095%=      5-min Rain = 0
KPA1 131319Z 01005KT 20/20 A3012 RMK A01 T02040195  RH  094%=      5-min Rain = 0
KPA1 131320Z 00006KT 20/20 A3012 RMK A01 T02040195  RH  095%=      5-min Rain = 0
KPA1 131321Z 35005KT 20/20 A3012 RMK A01 T02040195  RH  094%=      5-min Rain = 0
KPA1 131322Z 36005KT 20/19 A3012 RMK A01 T02040194  RH  094%=      5-min Rain = 0
KPA1 131323Z 35005KT 20/19 A3012 RMK A01 T02040194  RH  094%=      5-min Rain = 0
KPA1 131324Z 35005KT 20/20 A3012 RMK A01 T02040195  RH  095%=      5-min Rain = 0
KPA1 131325Z 35005KT 20/20 A3012 RMK A01 T02040195  RH  094%=      5-min Rain = 0
KPA1 131326Z 36005KT 20/20 A3012 RMK A01 T02040195  RH  094%=      5-min Rain = 0
KPA1 131327Z 35005KT 21/20 A3012 RMK A01 T02050195  RH  094%=      5-min Rain = 0
KPA1 131328Z 35005KT 21/20 A3012 RMK A01 T02050196  RH  094%=      5-min Rain = 0
KPA1 131329Z 35005KT 21/20 A3012 RMK A01 T02050197  RH  095%=      5-min Rain = 0
KPA1 131330Z 35006KT 21/20 A3012 RMK A01 T02060197  RH  094%=      5-min Rain = 0
KPA1 131331Z 34006KT 21/20 A3012 RMK A01 T02060195  RH  093%=      5-min Rain = 0
KPA1 131332Z 35006KT 21/20 A3013 RMK A01 T02070195  RH  093%=      5-min Rain = 0
KPA1 131333Z 34005KT 21/20 A3013 RMK A01 T02070195  RH  093%=      5-min Rain = 0
KPA1 131334Z 34007KT 21/20 A3013 RMK A01 T02070196  RH  093%=      5-min Rain = 0
KPA1 131335Z 35006KT 21/20 A3013 RMK A01 T02070195  RH  092%=      5-min Rain = 0
KPA1 131336Z 00007KT 21/20 A3013 RMK A01 T02080195  RH  093%=      5-min Rain = 0
KPA1 131337Z 36006KT 21/20 A3013 RMK A01 T02070195  RH  092%=      5-min Rain = 0
KPA1 131338Z 36006KT 21/20 A3013 RMK A01 T02070195  RH  092%=      5-min Rain = 0
KPA1 131339Z 36006KT 21/20 A3013 RMK A01 T02080196  RH  093%=      5-min Rain = 0
KPA1 131340Z 36006KT 21/19 A3013 RMK A01 T02080194  RH  092%=      5-min Rain = 0
KPA1 131341Z 36006KT 21/20 A3013 RMK A01 T02080195  RH  093%=      5-min Rain = 0
KPA1 131342Z 34006KT 21/20 A3013 RMK A01 T02090197  RH  093%=      5-min Rain = 0
KPA1 131343Z 34006KT 21/20 A3013 RMK A01 T02090196  RH  092%=      5-min Rain = 0
KPA1 131344Z 33007KT 21/20 A3013 RMK A01 T02090195  RH  092%=      5-min Rain = 0
KPA1 131345Z 34007KT 21/20 A3013 RMK A01 T02090196  RH  092%=      5-min Rain = 0
KPA1 131346Z 35007KT 21/20 A3013 RMK A01 T02090195  RH  092%=      5-min Rain = 0
KPA1 131347Z 34007KT 21/20 A3013 RMK A01 T02090195  RH  092%=      5-min Rain = 0
KPA1 131348Z 34006KT 21/20 A3013 RMK A01 T02090196  RH  092%=      5-min Rain = 0
KPA1 131349Z 34006KT 21/20 A3013 RMK A01 T02100197  RH  093%=      5-min Rain = 0
KPA1 131350Z 35005KT 21/20 A3013 RMK A01 T02100198  RH  093%=      5-min Rain = 0
KPA1 131351Z 35006KT 21/20 A3013 RMK A01 T02100197  RH  093%=      5-min Rain = 0
KPA1 131352Z 36007KT 21/20 A3013 RMK A01 T02100198  RH  092%=      5-min Rain = 0
KPA1 131353Z 00007KT 21/20 A3013 RMK A01 T02100198  RH  092%=      5-min Rain = 0
KPA1 131354Z 36006KT 21/20 A3013 RMK A01 T02100198  RH  093%=      5-min Rain = 0
KPA1 131355Z 00007KT 21/20 A3013 RMK A01 T02110198  RH  093%=      5-min Rain = 0
KPA1 131356Z 00007KT 21/20 A3013 RMK A01 T02100197  RH  092%=      5-min Rain = 0
KPA1 131357Z 00007KT 21/20 A3013 RMK A01 T02100197  RH  092%=      5-min Rain = 0
KPA1 131358Z 36007KT 21/20 A3013 RMK A01 T02090197  RH  093%=      5-min Rain = 0
KPA1 131359Z 36007KT 21/20 A3013 RMK A01 T02090197  RH  093%=      5-min Rain = 0
KPA1 131400Z 36008KT 21/20 A3013 RMK A01 T02080197  RH  093%=      5-min Rain = 0
KPA1 131401Z 35007KT 21/20 A3013 RMK A01 T02080196  RH  093%=      5-min Rain = 0
KPA1 131402Z 35007KT 21/20 A3013 RMK A01 T02080198  RH  094%=      5-min Rain = 0
KPA1 131403Z 34008KT 21/20 A3013 RMK A01 T02080197  RH  093%=      5-min Rain = 0
KPA1 131404Z 34007KT 21/20 A3013 RMK A01 T02080197  RH  093%=      5-min Rain = 0
KPA1 131405Z 34007KT 21/20 A3013 RMK A01 T02090197  RH  093%=      5-min Rain = 0
KPA1 131406Z 34006KT 21/20 A3013 RMK A01 T02100197  RH  093%=      5-min Rain = 0
KPA1 131407Z 35006KT 21/20 A3013 RMK A01 T02100199  RH  093%=      5-min Rain = 0
KPA1 131408Z 35007KT 21/20 A3014 RMK A01 T02120200  RH  093%=      5-min Rain = 0
KPA1 131409Z 34006KT 21/20 A3014 RMK A01 T02120198  RH  092%=      5-min Rain = 0
KPA1 131410Z 34006KT 21/20 A3014 RMK A01 T02120199  RH  092%=      5-min Rain = 0
KPA1 131411Z 34006KT 21/20 A3014 RMK A01 T02130199  RH  092%=      5-min Rain = 0
KPA1 131412Z 34007KT 21/20 A3014 RMK A01 T02130199  RH  092%=      5-min Rain = 0
KPA1 131413Z 34007KT 21/20 A3014 RMK A01 T02130198  RH  091%=      5-min Rain = 0
KPA1 131414Z 34007KT 21/20 A3014 RMK A01 T02130199  RH  092%=      5-min Rain = 0
KPA1 131415Z 34006KT 21/20 A3014 RMK A01 T02130201  RH  093%=      5-min Rain = 0
KPA1 131416Z 33007KT 22/20 A3014 RMK A01 T02150201  RH  092%=      5-min Rain = 0
KPA1 131417Z 33007KT 22/20 A3014 RMK A01 T02150200  RH  091%=      5-min Rain = 0
KPA1 131418Z 34009KT 22/20 A3014 RMK A01 T02160199  RH  090%=      5-min Rain = 0
KPA1 131419Z 34008KT 22/20 A3014 RMK A01 T02160199  RH  090%=      5-min Rain = 0
KPA1 131420Z 34008KT 22/20 A3014 RMK A01 T02170199  RH  089%=      5-min Rain = 0
KPA1 131421Z 33007KT 22/20 A3014 RMK A01 T02170198  RH  089%=      5-min Rain = 0
KPA1 131422Z 34007KT 22/20 A3014 RMK A01 T02170200  RH  090%=      5-min Rain = 0
KPA1 131423Z 34007KT 22/20 A3014 RMK A01 T02180199  RH  089%=      5-min Rain = 0
KPA1 131424Z 34008KT 22/20 A3014 RMK A01 T02200201  RH  089%=      5-min Rain = 0
KPA1 131425Z 34008KT 22/20 A3014 RMK A01 T02200198  RH  087%=      5-min Rain = 0
KPA1 131426Z 34007KT 22/20 A3014 RMK A01 T02200200  RH  089%=      5-min Rain = 0
KPA1 131427Z 34006KT 22/20 A3014 RMK A01 T02210200  RH  088%=      5-min Rain = 0
KPA1 131428Z 34006KT 22/20 A3014 RMK A01 T02210200  RH  088%=      5-min Rain = 0
KPA1 131429Z 33006KT 22/20 A3014 RMK A01 T02210200  RH  088%=      5-min Rain = 0
KPA1 131430Z 34007KT 22/20 A3014 RMK A01 T02210201  RH  088%=      5-min Rain = 0
KPA1 131431Z 33007KT 22/20 A3014 RMK A01 T02220201  RH  088%=      5-min Rain = 0
KPA1 131432Z 33006KT 22/20 A3014 RMK A01 T02220199  RH  087%=      5-min Rain = 0
KPA1 131433Z 34005KT 22/20 A3014 RMK A01 T02220200  RH  088%=      5-min Rain = 0
KPA1 131434Z 36004KT 22/20 A3014 RMK A01 T02230202  RH  088%=      5-min Rain = 0
KPA1 131435Z 34006KT 22/20 A3014 RMK A01 T02240202  RH  087%=      5-min Rain = 0
KPA1 131436Z 35006KT 23/20 A3014 RMK A01 T02250200  RH  085%=      5-min Rain = 0
KPA1 131437Z 35006KT 23/20 A3014 RMK A01 T02250201  RH  086%=      5-min Rain = 0
KPA1 131438Z 34006KT 23/20 A3014 RMK A01 T02260202  RH  086%=      5-min Rain = 0
KPA1 131439Z 35006KT 23/20 A3014 RMK A01 T02270202  RH  086%=      5-min Rain = 0
KPA1 131440Z 34007KT 23/20 A3014 RMK A01 T02280203  RH  086%=      5-min Rain = 0
KPA1 131441Z 35006KT 23/20 A3014 RMK A01 T02280200  RH  084%=      5-min Rain = 0
KPA1 131442Z 35005KT 23/20 A3014 RMK A01 T02270201  RH  085%=      5-min Rain = 0
KPA1 131443Z 36006KT 23/20 A3014 RMK A01 T02290204  RH  086%=      5-min Rain = 0
KPA1 131444Z 00006KT 23/20 A3014 RMK A01 T02290201  RH  084%=      5-min Rain = 0
KPA1 131445Z 34006KT 23/20 A3014 RMK A01 T02290202  RH  085%=      5-min Rain = 0
KPA1 131446Z 34007KT 23/20 A3014 RMK A01 T02290202  RH  084%=      5-min Rain = 0
KPA1 131447Z 33007KT 23/20 A3014 RMK A01 T02300201  RH  084%=      5-min Rain = 0
KPA1 131448Z 35006KT 23/20 A3014 RMK A01 T02290201  RH  084%=      5-min Rain = 0
KPA1 131449Z 36005KT 23/20 A3015 RMK A01 T02290200  RH  084%=      5-min Rain = 0
KPA1 131450Z 34006KT 23/20 A3015 RMK A01 T02290202  RH  085%=      5-min Rain = 0
KPA1 131451Z 35007KT 23/20 A3015 RMK A01 T02310204  RH  085%=      5-min Rain = 0
KPA1 131452Z 35006KT 23/20 A3015 RMK A01 T02310200  RH  083%=      5-min Rain = 0
KPA1 131453Z 01008KT 23/20 A3015 RMK A01 T02300202  RH  084%=      5-min Rain = 0
KPA1 131454Z 00007KT 23/20 A3015 RMK A01 T02310201  RH  083%=      5-min Rain = 0
KPA1 131455Z 01006KT 23/20 A3015 RMK A01 T02310201  RH  083%=      5-min Rain = 0
KPA1 131456Z 02009KT 23/20 A3015 RMK A01 T02310201  RH  083%=      5-min Rain = 0
KPA1 131457Z 01008KT 23/20 A3015 RMK A01 T02310200  RH  083%=      5-min Rain = 0
KPA1 131458Z 01008KT 23/20 A3015 RMK A01 T02310200  RH  083%=      5-min Rain = 0
KPA1 131459Z 01008KT 23/20 A3015 RMK A01 T02310201  RH  083%=      5-min Rain = 0
KPA1 131500Z 01007KT 23/20 A3015 RMK A01 T02310199  RH  082%=      5-min Rain = 0
KPA1 131501Z 01007KT 23/20 A3015 RMK A01 T02310199  RH  082%=      5-min Rain = 0
KPA1 131502Z 36008KT 23/20 A3015 RMK A01 T02310199  RH  082%=      5-min Rain = 0
KPA1 131503Z 35007KT 23/20 A3015 RMK A01 T02310201  RH  083%=      5-min Rain = 0
KPA1 131504Z 34008KT 23/20 A3015 RMK A01 T02330201  RH  082%=      5-min Rain = 0
KPA1 131505Z 36006KT 23/20 A3015 RMK A01 T02330200  RH  082%=      5-min Rain = 0
KPA1 131506Z 00006KT 23/20 A3015 RMK A01 T02320199  RH  082%=      5-min Rain = 0
KPA1 131507Z 02007KT 23/20 A3015 RMK A01 T02330200  RH  081%=      5-min Rain = 0
KPA1 131508Z 35007KT 23/20 A3015 RMK A01 T02330201  RH  082%=      5-min Rain = 0
KPA1 131509Z 35006KT 23/20 A3015 RMK A01 T02340198  RH  080%=      5-min Rain = 0
KPA1 131510Z 35007KT 24/20 A3015 RMK A01 T02350201  RH  081%=      5-min Rain = 0
KPA1 131511Z 01008KT 24/20 A3015 RMK A01 T02370203  RH  081%=      5-min Rain = 0
KPA1 131512Z 02008KT 24/20 A3015 RMK A01 T02390204  RH  081%=      5-min Rain = 0
KPA1 131513Z 02009KT 24/20 A3015 RMK A01 T02390204  RH  081%=      5-min Rain = 0
KPA1 131514Z 01007KT 24/20 A3015 RMK A01 T02390203  RH  081%=      5-min Rain = 0
KPA1 131515Z 02007KT 24/20 A3015 RMK A01 T02390203  RH  081%=      5-min Rain = 0
KPA1 131516Z 01006KT 24/20 A3015 RMK A01 T02380202  RH  080%=      5-min Rain = 0
KPA1 131517Z 36007KT 24/20 A3015 RMK A01 T02380202  RH  080%=      5-min Rain = 0
KPA1 131518Z 01007KT 24/20 A3015 RMK A01 T02370200  RH  080%=      5-min Rain = 0
KPA1 131519Z 01007KT 24/20 A3015 RMK A01 T02370202  RH  081%=      5-min Rain = 0
KPA1 131520Z 36009KT 24/20 A3015 RMK A01 T02380200  RH  079%=      5-min Rain = 0
KPA1 131521Z 36008KT 24/20 A3015 RMK A01 T02380198  RH  078%=      5-min Rain = 0
KPA1 131522Z 35007KT 24/20 A3015 RMK A01 T02370198  RH  079%=      5-min Rain = 0
KPA1 131523Z 35006KT 24/20 A3015 RMK A01 T02370200  RH  080%=      5-min Rain = 0
KPA1 131524Z 00005KT 24/20 A3015 RMK A01 T02410201  RH  079%=      5-min Rain = 0
KPA1 131525Z 02008KT 24/20 A3015 RMK A01 T02410202  RH  078%=      5-min Rain = 0
KPA1 131526Z 03007KT 24/20 A3015 RMK A01 T02410204  RH  079%=      5-min Rain = 0
KPA1 131527Z 02008KT 24/20 A3015 RMK A01 T02420203  RH  079%=      5-min Rain = 0
KPA1 131528Z 02008KT 24/20 A3015 RMK A01 T02420200  RH  077%=      5-min Rain = 0
KPA1 131529Z 02008KT 24/20 A3015 RMK A01 T02410201  RH  079%=      5-min Rain = 0
KPA1 131530Z 02008KT 24/20 A3015 RMK A01 T02410202  RH  079%=      5-min Rain = 0
KPA1 131531Z 02008KT 24/20 A3015 RMK A01 T02430202  RH  078%=      5-min Rain = 0
KPA1 131532Z 00006KT 24/20 A3015 RMK A01 T02420200  RH  077%=      5-min Rain = 0
KPA1 131533Z 02005KT 24/20 A3015 RMK A01 T02410202  RH  079%=      5-min Rain = 0
KPA1 131534Z 03006KT 24/20 A3015 RMK A01 T02430201  RH  077%=      5-min Rain = 0
KPA1 131535Z 01008KT 24/20 A3015 RMK A01 T02440201  RH  077%=      5-min Rain = 0
KPA1 131536Z 00008KT 24/20 A3015 RMK A01 T02440201  RH  077%=      5-min Rain = 0
KPA1 131537Z 00008KT 24/20 A3015 RMK A01 T02430201  RH  077%=      5-min Rain = 0
KPA1 131538Z 01007KT 24/20 A3015 RMK A01 T02440201  RH  077%=      5-min Rain = 0
KPA1 131539Z 02007KT 24/20 A3015 RMK A01 T02430201  RH  077%=      5-min Rain = 0
KPA1 131540Z 03008KT 24/20 A3015 RMK A01 T02430202  RH  078%=      5-min Rain = 0
KPA1 131541Z 03006KT 24/20 A3015 RMK A01 T02440200  RH  076%=      5-min Rain = 0
KPA1 131542Z 02007KT 25/20 A3015 RMK A01 T02450202  RH  077%=      5-min Rain = 0
KPA1 131543Z 00006KT 25/20 A3015 RMK A01 T02460201  RH  076%=      5-min Rain = 0
KPA1 131544Z 01006KT 25/20 A3015 RMK A01 T02450202  RH  077%=      5-min Rain = 0
KPA1 131545Z 02005KT 25/20 A3015 RMK A01 T02470204  RH  077%=      5-min Rain = 0
KPA1 131546Z 00005KT 25/20 A3015 RMK A01 T02500202  RH  075%=      5-min Rain = 0
KPA1 131547Z 01005KT 25/21 A3015 RMK A01 T02500206  RH  076%=      5-min Rain = 0
KPA1 131548Z 35008KT 25/20 A3015 RMK A01 T02520202  RH  074%=      5-min Rain = 0
KPA1 131549Z 01006KT 25/20 A3015 RMK A01 T02500202  RH  075%=      5-min Rain = 0
KPA1 131550Z 35007KT 25/20 A3015 RMK A01 T02490201  RH  075%=      5-min Rain = 0
KPA1 131551Z 35007KT 25/20 A3015 RMK A01 T02480201  RH  075%=      5-min Rain = 0
KPA1 131552Z 02006KT 25/20 A3015 RMK A01 T02480202  RH  076%=      5-min Rain = 0
KPA1 131553Z 03005KT 25/20 A3015 RMK A01 T02480201  RH  075%=      5-min Rain = 0
KPA1 131554Z 03005KT 25/20 A3015 RMK A01 T02490200  RH  074%=      5-min Rain = 0
KPA1 131555Z 01004KT 25/20 A3015 RMK A01 T02490199  RH  074%=      5-min Rain = 0
KPA1 131556Z 36006KT 25/20 A3015 RMK A01 T02490202  RH  075%=      5-min Rain = 0
KPA1 131557Z 36006KT 25/20 A3015 RMK A01 T02490203  RH  075%=      5-min Rain = 0
KPA1 131558Z 01006KT 25/20 A3015 RMK A01 T02500203  RH  075%=      5-min Rain = 0
KPA1 131559Z 02008KT 25/21 A3015 RMK A01 T02510205  RH  075%=      5-min Rain = 0
KPA1 131600Z 01006KT 25/20 A3015 RMK A01 T02520203  RH  074%=      5-min Rain = 0
KPA1 131601Z 01006KT 25/20 A3015 RMK A01 T02510203  RH  075%=      5-min Rain = 0
KPA1 131602Z 03006KT 25/20 A3015 RMK A01 T02510204  RH  075%=      5-min Rain = 0
KPA1 131603Z 01008KT 25/20 A3015 RMK A01 T02530204  RH  074%=      5-min Rain = 0
KPA1 131604Z 02006KT 25/20 A3015 RMK A01 T02540203  RH  073%=      5-min Rain = 0
KPA1 131605Z 35006KT 25/20 A3015 RMK A01 T02540202  RH  073%=      5-min Rain = 0
KPA1 131606Z 34007KT 25/20 A3015 RMK A01 T02530201  RH  073%=      5-min Rain = 0
KPA1 131607Z 34006KT 25/20 A3015 RMK A01 T02540202  RH  073%=      5-min Rain = 0
KPA1 131608Z 35006KT 26/20 A3015 RMK A01 T02560198  RH  070%=      5-min Rain = 0
KPA1 131609Z 36006KT 25/20 A3015 RMK A01 T02540201  RH  072%=      5-min Rain = 0
KPA1 131610Z 34004KT 26/20 A3015 RMK A01 T02550199  RH  071%=      5-min Rain = 0
KPA1 131611Z 35004KT 25/20 A3015 RMK A01 T02540202  RH  073%=      5-min Rain = 0
KPA1 131612Z 02004KT 25/20 A3016 RMK A01 T02540204  RH  073%=      5-min Rain = 0
KPA1 131613Z 03005KT 26/21 A3016 RMK A01 T02560206  RH  074%=      5-min Rain = 0
KPA1 131614Z 03006KT 26/21 A3016 RMK A01 T02590205  RH  072%=      5-min Rain = 0
KPA1 131615Z 01006KT 26/20 A3016 RMK A01 T02590204  RH  072%=      5-min Rain = 0
KPA1 131616Z 36005KT 26/20 A3016 RMK A01 T02600204  RH  071%=      5-min Rain = 0
KPA1 131617Z 34006KT 26/20 A3016 RMK A01 T02610200  RH  069%=      5-min Rain = 0
KPA1 131618Z 35005KT 26/20 A3016 RMK A01 T02590200  RH  070%=      5-min Rain = 0
KPA1 131619Z 02005KT 26/20 A3016 RMK A01 T02570200  RH  071%=      5-min Rain = 0
KPA1 131620Z 36006KT 26/20 A3016 RMK A01 T02570200  RH  071%=      5-min Rain = 0
KPA1 131621Z 35005KT 26/20 A3016 RMK A01 T02580202  RH  071%=      5-min Rain = 0
KPA1 131622Z 36005KT 26/20 A3016 RMK A01 T02590200  RH  070%=      5-min Rain = 0
KPA1 131623Z 02004KT 26/20 A3016 RMK A01 T02590202  RH  071%=      5-min Rain = 0
KPA1 131624Z 02005KT 26/21 A3016 RMK A01 T02620205  RH  071%=      5-min Rain = 0
KPA1 131625Z 02006KT 26/21 A3016 RMK A01 T02640205  RH  070%=      5-min Rain = 0
KPA1 131626Z 03006KT 26/20 A3016 RMK A01 T02640204  RH  069%=      5-min Rain = 0
KPA1 131627Z 03005KT 26/20 A3016 RMK A01 T02620204  RH  070%=      5-min Rain = 0
KPA1 131628Z 03005KT 26/20 A3016 RMK A01 T02610203  RH  070%=      5-min Rain = 0
KPA1 131629Z 04007KT 26/20 A3016 RMK A01 T02620204  RH  070%=      5-min Rain = 0
KPA1 131630Z 05007KT 26/20 A3016 RMK A01 T02630202  RH  069%=      5-min Rain = 0
KPA1 131631Z 05005KT 26/20 A3016 RMK A01 T02630202  RH  069%=      5-min Rain = 0
KPA1 131632Z 05004KT 26/20 A3016 RMK A01 T02620204  RH  070%=      5-min Rain = 0
KPA1 131633Z 03005KT 26/21 A3016 RMK A01 T02620205  RH  071%=      5-min Rain = 0
KPA1 131634Z 35005KT 26/21 A3016 RMK A01 T02630206  RH  071%=      5-min Rain = 0
KPA1 131635Z 02006KT 26/20 A3016 RMK A01 T02640202  RH  069%=      5-min Rain = 0
KPA1 131636Z 04005KT 26/20 A3016 RMK A01 T02640204  RH  070%=      5-min Rain = 0
KPA1 131637Z 03005KT 26/21 A3016 RMK A01 T02640205  RH  070%=      5-min Rain = 0
KPA1 131638Z 02005KT 26/21 A3016 RMK A01 T02640205  RH  070%=      5-min Rain = 0
KPA1 131639Z 03007KT 27/20 A3016 RMK A01 T02650204  RH  069%=      5-min Rain = 0
KPA1 131640Z 02005KT 27/20 A3016 RMK A01 T02660202  RH  068%=      5-min Rain = 0
KPA1 131641Z 04007KT 27/21 A3016 RMK A01 T02670205  RH  069%=      5-min Rain = 0
KPA1 131642Z 06007KT 27/20 A3016 RMK A01 T02690201  RH  066%=      5-min Rain = 0
KPA1 131643Z 03007KT 27/20 A3016 RMK A01 T02680201  RH  067%=      5-min Rain = 0
KPA1 131644Z 02006KT 27/20 A3016 RMK A01 T02670199  RH  066%=      5-min Rain = 0
KPA1 131645Z 02005KT 27/20 A3016 RMK A01 T02670198  RH  066%=      5-min Rain = 0
KPA1 131646Z 02003KT 27/20 A3016 RMK A01 T02660198  RH  066%=      5-min Rain = 0
KPA1 131647Z 02003KT 27/20 A3016 RMK A01 T02660201  RH  068%=      5-min Rain = 0
KPA1 131648Z 04005KT 27/20 A3016 RMK A01 T02670198  RH  066%=      5-min Rain = 0
KPA1 131649Z 01007KT 27/20 A3016 RMK A01 T02680201  RH  067%=      5-min Rain = 0
KPA1 131650Z 02004KT 27/20 A3016 RMK A01 T02670198  RH  066%=      5-min Rain = 0
KPA1 131651Z 01004KT 27/20 A3016 RMK A01 T02650198  RH  067%=      5-min Rain = 0
KPA1 131652Z 35005KT 27/20 A3016 RMK A01 T02650197  RH  066%=      5-min Rain = 0
KPA1 131653Z 36003KT 27/20 A3016 RMK A01 T02660195  RH  065%=      5-min Rain = 0
KPA1 131654Z 01004KT 27/20 A3016 RMK A01 T02670199  RH  066%=      5-min Rain = 0
KPA1 131655Z 01004KT 27/20 A3016 RMK A01 T02710203  RH  066%=      5-min Rain = 0
KPA1 131656Z 03006KT 27/20 A3016 RMK A01 T02730202  RH  065%=      5-min Rain = 0
KPA1 131657Z 05005KT 27/20 A3016 RMK A01 T02720201  RH  065%=      5-min Rain = 0
KPA1 131658Z 01006KT 27/20 A3016 RMK A01 T02700201  RH  066%=      5-min Rain = 0
KPA1 131659Z 36005KT 27/20 A3016 RMK A01 T02690198  RH  065%=      5-min Rain = 0
KPA1 131700Z 35004KT 27/20 A3016 RMK A01 T02680197  RH  065%=      5-min Rain = 0
KPA1 131701Z 34004KT 27/20 A3016 RMK A01 T02680196  RH  065%=      5-min Rain = 0
KPA1 131702Z 36003KT 27/20 A3016 RMK A01 T02690199  RH  066%=      5-min Rain = 0
KPA1 131703Z 03006KT 27/20 A3016 RMK A01 T02700203  RH  066%=      5-min Rain = 0
KPA1 131704Z 04005KT 27/20 A3016 RMK A01 T02720203  RH  066%=      5-min Rain = 0
KPA1 131705Z 04006KT 27/20 A3016 RMK A01 T02740196  RH  062%=      5-min Rain = 0
KPA1 131706Z 04006KT 27/20 A3016 RMK A01 T02720200  RH  065%=      5-min Rain = 0
KPA1 131707Z 05004KT 27/20 A3016 RMK A01 T02710202  RH  066%=      5-min Rain = 0
KPA1 131708Z 05002KT 27/20 A3016 RMK A01 T02710200  RH  065%=      5-min Rain = 0
KPA1 131709Z 03002KT 27/20 A3016 RMK A01 T02700200  RH  066%=      5-min Rain = 0
KPA1 131710Z 03006KT 27/20 A3016 RMK A01 T02720202  RH  066%=      5-min Rain = 0
KPA1 131711Z 05006KT 27/20 A3016 RMK A01 T02740203  RH  065%=      5-min Rain = 0
KPA1 131712Z 06005KT 28/20 A3016 RMK A01 T02760198  RH  063%=      5-min Rain = 0
KPA1 131713Z 04004KT 27/20 A3016 RMK A01 T02730200  RH  064%=      5-min Rain = 0
KPA1 131714Z 05005KT 27/20 A3016 RMK A01 T02740203  RH  065%=      5-min Rain = 0
KPA1 131715Z 03006KT 28/20 A3016 RMK A01 T02770201  RH  063%=      5-min Rain = 0
KPA1 131716Z 03005KT 28/20 A3016 RMK A01 T02770202  RH  063%=      5-min Rain = 0
KPA1 131717Z 03004KT 28/20 A3016 RMK A01 T02780200  RH  063%=      5-min Rain = 0
KPA1 131718Z 02006KT 28/20 A3016 RMK A01 T02760198  RH  062%=      5-min Rain = 0
KPA1 131719Z 03006KT 28/20 A3016 RMK A01 T02750197  RH  063%=      5-min Rain = 0
KPA1 131720Z 04005KT 27/20 A3016 RMK A01 T02740199  RH  064%=      5-min Rain = 0
KPA1 131721Z 03002KT 28/20 A3016 RMK A01 T02750197  RH  063%=      5-min Rain = 0
KPA1 131722Z 02005KT 28/20 A3016 RMK A01 T02760201  RH  063%=      5-min Rain = 0
KPA1 131723Z 05005KT 28/20 A3016 RMK A01 T02790199  RH  062%=      5-min Rain = 0
KPA1 131724Z 03006KT 28/20 A3016 RMK A01 T02790199  RH  062%=      5-min Rain = 0
KPA1 131725Z 01005KT 28/20 A3016 RMK A01 T02790198  RH  061%=      5-min Rain = 0
KPA1 131726Z 04004KT 28/20 A3016 RMK A01 T02780198  RH  062%=      5-min Rain = 0
KPA1 131727Z 00004KT 28/20 A3016 RMK A01 T02790197  RH  061%=      5-min Rain = 0
KPA1 131728Z 01005KT 28/20 A3016 RMK A01 T02790198  RH  061%=      5-min Rain = 0
KPA1 131729Z 05007KT 28/20 A3016 RMK A01 T02810202  RH  062%=      5-min Rain = 0
KPA1 131730Z 06005KT 28/20 A3016 RMK A01 T02820199  RH  061%=      5-min Rain = 0
KPA1 131731Z 05005KT 28/20 A3016 RMK A01 T02810200  RH  061%=      5-min Rain = 0
KPA1 131732Z 06004KT 28/20 A3016 RMK A01 T02810195  RH  060%=      5-min Rain = 0
KPA1 131733Z 04002KT 28/20 A3016 RMK A01 T02800197  RH  060%=      5-min Rain = 0
KPA1 131734Z 02005KT 28/20 A3016 RMK A01 T02810196  RH  060%=      5-min Rain = 0
KPA1 131735Z 03001KT 28/20 A3016 RMK A01 T02800195  RH  060%=      5-min Rain = 0
KPA1 131736Z 00003KT 28/19 A3016 RMK A01 T02800194  RH  059%=      5-min Rain = 0
KPA1 131737Z 01006KT 28/20 A3016 RMK A01 T02810196  RH  060%=      5-min Rain = 0
KPA1 131738Z 01007KT 28/20 A3016 RMK A01 T02810198  RH  061%=      5-min Rain = 0
KPA1 131739Z 01006KT 28/20 A3016 RMK A01 T02820199  RH  061%=      5-min Rain = 0
KPA1 131740Z 01006KT 28/20 A3016 RMK A01 T02820200  RH  061%=      5-min Rain = 0
KPA1 131741Z 02007KT 28/20 A3016 RMK A01 T02820202  RH  062%=      5-min Rain = 0
KPA1 131742Z 02005KT 28/20 A3016 RMK A01 T02830200  RH  061%=      5-min Rain = 0
KPA1 131743Z 01001KT 28/21 A3016 RMK A01 T02830205  RH  063%=      5-min Rain = 0
KPA1 131744Z 36002KT 29/20 A3016 RMK A01 T02850202  RH  061%=      5-min Rain = 0
KPA1 131745Z 02008KT 29/20 A3016 RMK A01 T02860196  RH  058%=      5-min Rain = 0
KPA1 131746Z 05006KT 29/19 A3016 RMK A01 T02860192  RH  057%=      5-min Rain = 0
KPA1 131747Z 04004KT 29/19 A3016 RMK A01 T02850192  RH  057%=      5-min Rain = 0
KPA1 131748Z 01006KT 29/19 A3016 RMK A01 T02850194  RH  058%=      5-min Rain = 0
KPA1 131749Z 02006KT 29/19 A3016 RMK A01 T02860194  RH  058%=      5-min Rain = 0
KPA1 131750Z 03005KT 29/19 A3016 RMK A01 T02860191  RH  056%=      5-min Rain = 0
KPA1 131751Z 02006KT 29/19 A3016 RMK A01 T02850194  RH  058%=      5-min Rain = 0
KPA1 131752Z 01003KT 29/19 A3016 RMK A01 T02850192  RH  057%=      5-min Rain = 0
KPA1 131753Z 05004KT 28/20 A3016 RMK A01 T02840198  RH  059%=      5-min Rain = 0
KPA1 131754Z 06006KT 29/20 A3016 RMK A01 T02860197  RH  058%=      5-min Rain = 0
KPA1 131755Z 06006KT 29/20 A3016 RMK A01 T02880200  RH  059%=      5-min Rain = 0
KPA1 131756Z 04005KT 29/20 A3016 RMK A01 T02870198  RH  058%=      5-min Rain = 0
KPA1 131757Z 03004KT 29/20 A3016 RMK A01 T02850196  RH  058%=      5-min Rain = 0
KPA1 131758Z 05005KT 28/20 A3016 RMK A01 T02840198  RH  060%=      5-min Rain = 0
KPA1 131759Z 06006KT 29/20 A3016 RMK A01 T02850196  RH  058%=      5-min Rain = 0
KPA1 131800Z 04006KT 29/20 A3016 RMK A01 T02870197  RH  058%=      5-min Rain = 0
KPA1 131801Z 03005KT 29/20 A3016 RMK A01 T02870196  RH  058%=      5-min Rain = 0
KPA1 131802Z 02006KT 29/20 A3016 RMK A01 T02870197  RH  058%=      5-min Rain = 0
KPA1 131803Z 02007KT 29/20 A3016 RMK A01 T02880196  RH  057%=      5-min Rain = 0
KPA1 131804Z 02006KT 29/20 A3015 RMK A01 T02880198  RH  058%=      5-min Rain = 0
KPA1 131805Z 02005KT 29/20 A3015 RMK A01 T02870196  RH  058%=      5-min Rain = 0
KPA1 131806Z 03004KT 29/20 A3015 RMK A01 T02860199  RH  059%=      5-min Rain = 0
KPA1 131807Z 03005KT 29/20 A3015 RMK A01 T02870200  RH  059%=      5-min Rain = 0
KPA1 131808Z 03004KT 29/20 A3015 RMK A01 T02880198  RH  058%=      5-min Rain = 0
KPA1 131809Z 03008KT 29/20 A3015 RMK A01 T02910199  RH  058%=      5-min Rain = 0
KPA1 131810Z 02007KT 29/19 A3015 RMK A01 T02920194  RH  055%=      5-min Rain = 0
KPA1 131811Z 02007KT 29/19 A3015 RMK A01 T02900194  RH  056%=      5-min Rain = 0
KPA1 131812Z 04007KT 29/20 A3015 RMK A01 T02880196  RH  057%=      5-min Rain = 0
KPA1 131813Z 04004KT 29/20 A3015 RMK A01 T02880195  RH  057%=      5-min Rain = 0
KPA1 131814Z 02001KT 29/20 A3015 RMK A01 T02900196  RH  057%=      5-min Rain = 0
KPA1 131815Z 34002KT 29/19 A3015 RMK A01 T02910194  RH  056%=      5-min Rain = 0
KPA1 131816Z 01003KT 29/20 A3015 RMK A01 T02910195  RH  056%=      5-min Rain = 0
KPA1 131817Z 02005KT 29/20 A3015 RMK A01 T02910196  RH  056%=      5-min Rain = 0
KPA1 131818Z 03005KT 29/20 A3015 RMK A01 T02900195  RH  056%=      5-min Rain = 0
KPA1 131819Z 05005KT 29/20 A3015 RMK A01 T02900195  RH  057%=      5-min Rain = 0
KPA1 131820Z 04006KT 29/19 A3015 RMK A01 T02900192  RH  055%=      5-min Rain = 0
KPA1 131821Z 04007KT 29/19 A3015 RMK A01 T02900190  RH  055%=      5-min Rain = 0
KPA1 131822Z 06008KT 29/20 A3015 RMK A01 T02930195  RH  055%=      5-min Rain = 0
KPA1 131823Z 07010KT 30/19 A3015 RMK A01 T02970193  RH  054%=      5-min Rain = 0
KPA1 131824Z 07008KT 30/19 A3015 RMK A01 T02990188  RH  051%=      5-min Rain = 0
KPA1 131825Z 06005KT 30/19 A3015 RMK A01 T02990186  RH  051%=      5-min Rain = 0
KPA1 131826Z 04004KT 30/18 A3015 RMK A01 T02980181  RH  049%=      5-min Rain = 0
KPA1 131827Z 06006KT 30/18 A3015 RMK A01 T02950181  RH  050%=      5-min Rain = 0
KPA1 131828Z 05008KT 29/18 A3015 RMK A01 T02930183  RH  051%=      5-min Rain = 0
KPA1 131829Z 06010KT 29/19 A3015 RMK A01 T02940189  RH  053%=      5-min Rain = 0
KPA1 131830Z 05010KT 30/19 A3015 RMK A01 T02960186  RH  052%=      5-min Rain = 0
KPA1 131831Z 05010KT 30/18 A3015 RMK A01 T02960184  RH  051%=      5-min Rain = 0
KPA1 131832Z 07009KT 30/18 A3015 RMK A01 T02950183  RH  051%=      5-min Rain = 0
KPA1 131833Z 07011KT 29/18 A3015 RMK A01 T02940183  RH  051%=      5-min Rain = 0
KPA1 131834Z 08008KT 29/19 A3015 RMK A01 T02930185  RH  052%=      5-min Rain = 0
KPA1 131835Z 06004KT 29/19 A3015 RMK A01 T02930185  RH  052%=      5-min Rain = 0
KPA1 131836Z 03007KT 30/19 A3015 RMK A01 T02950188  RH  052%=      5-min Rain = 0
KPA1 131837Z 07007KT 30/19 A3015 RMK A01 T02980193  RH  053%=      5-min Rain = 0
KPA1 131838Z 08007KT 30/19 A3015 RMK A01 T03000188  RH  051%=      5-min Rain = 0
KPA1 131839Z 08007KT 30/18 A3015 RMK A01 T02970184  RH  051%=      5-min Rain = 0
KPA1 131840Z 08005KT 29/18 A3015 RMK A01 T02920184  RH  052%=      5-min Rain = 0
KPA1 131841Z 06004KT 29/19 A3015 RMK A01 T02880185  RH  054%=      5-min Rain = 0
KPA1 131842Z 06006KT 29/19 A3015 RMK A01 T02880190  RH  056%=      5-min Rain = 0
KPA1 131843Z 06005KT 29/19 A3015 RMK A01 T02900186  RH  054%=      5-min Rain = 0
KPA1 131844Z 07006G11KT 29/19 A3015 RMK A01 T02910188  RH  054%=      5-min Rain = 0
KPA1 131845Z 08010KT 29/19 A3015 RMK A01 T02940190  RH  053%=      5-min Rain = 0
KPA1 131846Z 08008KT 30/19 A3015 RMK A01 T02960187  RH  052%=      5-min Rain = 0
KPA1 131847Z 07005KT 30/19 A3015 RMK A01 T02970185  RH  051%=      5-min Rain = 0
KPA1 131848Z 07004KT 30/18 A3015 RMK A01 T02960183  RH  051%=      5-min Rain = 0
KPA1 131849Z 06010KT 30/19 A3015 RMK A01 T02950191  RH  054%=      5-min Rain = 0
KPA1 131850Z 06010KT 30/19 A3015 RMK A01 T02950188  RH  053%=      5-min Rain = 0
KPA1 131851Z 05007KT 30/19 A3015 RMK A01 T02960187  RH  052%=      5-min Rain = 0
KPA1 131852Z 06006KT 30/19 A3015 RMK A01 T02960187  RH  052%=      5-min Rain = 0
KPA1 131853Z 07005KT 30/19 A3015 RMK A01 T02950187  RH  052%=      5-min Rain = 0
KPA1 131854Z 06008KT 30/20 A3015 RMK A01 T02960196  RH  055%=      5-min Rain = 0
KPA1 131855Z 06010KT 30/19 A3015 RMK A01 T02990194  RH  053%=      5-min Rain = 0
KPA1 131856Z 07009KT 30/19 A3015 RMK A01 T02980190  RH  052%=      5-min Rain = 0
KPA1 131857Z 07008KT 30/19 A3015 RMK A01 T02970189  RH  052%=      5-min Rain = 0
KPA1 131858Z 08009KT 30/19 A3015 RMK A01 T02970190  RH  053%=      5-min Rain = 0
KPA1 131859Z 09007KT 30/19 A3015 RMK A01 T02980188  RH  052%=      5-min Rain = 0
KPA1 131900Z 08006KT 30/19 A3015 RMK A01 T02980189  RH  052%=      5-min Rain = 0
KPA1 131901Z 07006KT 30/19 A3015 RMK A01 T02970189  RH  052%=      5-min Rain = 0
KPA1 131902Z 04006KT 30/19 A3015 RMK A01 T02970190  RH  053%=      5-min Rain = 0
KPA1 131903Z 03007KT 30/19 A3015 RMK A01 T02960189  RH  053%=      5-min Rain = 0
KPA1 131904Z 04006KT 30/19 A3015 RMK A01 T02970193  RH  054%=      5-min Rain = 0
KPA1 131905Z 06006KT 30/19 A3015 RMK A01 T03000191  RH  052%=      5-min Rain = 0
KPA1 131906Z 08007KT 30/19 A3015 RMK A01 T03000191  RH  052%=      5-min Rain = 0
KPA1 131907Z 11007KT 30/19 A3015 RMK A01 T02990190  RH  052%=      5-min Rain = 0
KPA1 131908Z 12003KT 30/19 A3014 RMK A01 T02990188  RH  051%=      5-min Rain = 0
KPA1 131909Z 07003KT 30/19 A3015 RMK A01 T02990189  RH  052%=      5-min Rain = 0
KPA1 131910Z 06004KT 30/19 A3015 RMK A01 T02990189  RH  052%=      5-min Rain = 0
KPA1 131911Z 08004KT 30/20 A3015 RMK A01 T02990195  RH  054%=      5-min Rain = 0
KPA1 131912Z 06004KT 30/20 A3015 RMK A01 T03010197  RH  054%=      5-min Rain = 0
KPA1 131913Z 08005KT 30/20 A3015 RMK A01 T03030195  RH  053%=      5-min Rain = 0
KPA1 131914Z 10006KT 30/20 A3015 RMK A01 T03030196  RH  053%=      5-min Rain = 0
KPA1 131915Z 09006KT 30/20 A3015 RMK A01 T03030199  RH  054%=      5-min Rain = 0
KPA1 131916Z 08008KT 30/20 A3015 RMK A01 T03040201  RH  054%=      5-min Rain = 0
KPA1 131917Z 08007KT 31/19 A3015 RMK A01 T03050192  RH  051%=      5-min Rain = 0
KPA1 131918Z 09007KT 30/19 A3015 RMK A01 T03040190  RH  051%=      5-min Rain = 0
KPA1 131919Z 09007KT 30/19 A3015 RMK A01 T03010188  RH  051%=      5-min Rain = 0
KPA1 131920Z 08007KT 30/19 A3015 RMK A01 T03000188  RH  051%=      5-min Rain = 0
KPA1 131921Z 09009KT 30/18 A3015 RMK A01 T02990183  RH  050%=      5-min Rain = 0
KPA1 131922Z 07009KT 30/19 A3015 RMK A01 T02990188  RH  051%=      5-min Rain = 0
KPA1 131923Z 06009KT 30/19 A3015 RMK A01 T02990189  RH  052%=      5-min Rain = 0
KPA1 131924Z 06007KT 30/19 A3015 RMK A01 T02980187  RH  051%=      5-min Rain = 0
KPA1 131925Z 06006KT 30/19 A3014 RMK A01 T02980193  RH  053%=      5-min Rain = 0
KPA1 131926Z 06003KT 30/20 A3014 RMK A01 T03000196  RH  054%=      5-min Rain = 0
KPA1 131927Z 06006KT 30/19 A3014 RMK A01 T03020189  RH  051%=      5-min Rain = 0
KPA1 131928Z 04007KT 30/20 A3014 RMK A01 T03020195  RH  053%=      5-min Rain = 0
KPA1 131929Z 05007KT 30/19 A3014 RMK A01 T03030193  RH  052%=      5-min Rain = 0
KPA1 131930Z 08008KT 30/19 A3014 RMK A01 T03010192  RH  052%=      5-min Rain = 0
KPA1 131931Z 08010KT 30/19 A3015 RMK A01 T02980186  RH  051%=      5-min Rain = 0
KPA1 131932Z 07008KT 30/19 A3015 RMK A01 T02950186  RH  052%=      5-min Rain = 0
KPA1 131933Z 07007KT 30/18 A3015 RMK A01 T02960182  RH  050%=      5-min Rain = 0
KPA1 131934Z 06007KT 30/18 A3014 RMK A01 T02970182  RH  050%=      5-min Rain = 0
KPA1 131935Z 07008KT 30/18 A3014 RMK A01 T02990184  RH  050%=      5-min Rain = 0
KPA1 131936Z 08007KT 30/18 A3014 RMK A01 T03010181  RH  048%=      5-min Rain = 0
KPA1 131937Z 09008KT 30/18 A3014 RMK A01 T03010184  RH  050%=      5-min Rain = 0
KPA1 131938Z 05009KT 30/19 A3014 RMK A01 T03020189  RH  051%=      5-min Rain = 0
KPA1 131939Z 05009KT 31/19 A3014 RMK A01 T03050186  RH  049%=      5-min Rain = 0
KPA1 131940Z 06009KT 31/18 A3014 RMK A01 T03050184  RH  048%=      5-min Rain = 0
KPA1 131941Z 05007KT 30/18 A3014 RMK A01 T03040183  RH  048%=      5-min Rain = 0
KPA1 131942Z 04008KT 30/18 A3014 RMK A01 T03030182  RH  048%=      5-min Rain = 0
KPA1 131943Z 08010KT 30/19 A3014 RMK A01 T03030185  RH  049%=      5-min Rain = 0
KPA1 131944Z 08009KT 30/19 A3014 RMK A01 T03040186  RH  049%=      5-min Rain = 0
KPA1 131945Z 08007KT 31/19 A3014 RMK A01 T03070190  RH  050%=      5-min Rain = 0
KPA1 131946Z 07008KT 31/19 A3014 RMK A01 T03090187  RH  048%=      5-min Rain = 0
KPA1 131947Z 08008KT 31/19 A3014 RMK A01 T03090194  RH  050%=      5-min Rain = 0
KPA1 131948Z 08008KT 31/19 A3014 RMK A01 T03080187  RH  048%=      5-min Rain = 0
KPA1 131949Z 05007KT 31/19 A3014 RMK A01 T03050187  RH  049%=      5-min Rain = 0
KPA1 131950Z 07008KT 31/19 A3014 RMK A01 T03050188  RH  050%=      5-min Rain = 0
KPA1 131951Z 07007KT 31/19 A3014 RMK A01 T03070190  RH  050%=      5-min Rain = 0
KPA1 131952Z 05010KT 31/19 A3014 RMK A01 T03090186  RH  048%=      5-min Rain = 0
KPA1 131953Z 05008KT 31/19 A3014 RMK A01 T03060185  RH  048%=      5-min Rain = 0
KPA1 131954Z 05006KT 31/19 A3014 RMK A01 T03050186  RH  049%=      5-min Rain = 0
KPA1 131955Z 09007KT 31/19 A3014 RMK A01 T03070189  RH  049%=      5-min Rain = 0
KPA1 131956Z 09009KT 31/18 A3014 RMK A01 T03080183  RH  047%=      5-min Rain = 0
KPA1 131957Z 09008KT 31/18 A3014 RMK A01 T03060176  RH  046%=      5-min Rain = 0
KPA1 131958Z 10007KT 30/18 A3014 RMK A01 T03040179  RH  047%=      5-min Rain = 0
KPA1 131959Z 09008KT 30/18 A3014 RMK A01 T03040178  RH  047%=      5-min Rain = 0
KPA1 132000Z 07007KT 31/18 A3013 RMK A01 T03050176  RH  046%=      5-min Rain = 0
KPA1 132001Z 10008KT 31/17 A3013 RMK A01 T03050174  RH  045%=      5-min Rain = 0
KPA1 132002Z 10009KT 31/17 A3013 RMK A01 T03050174  RH  045%=      5-min Rain = 0
KPA1 132003Z 10008KT 31/17 A3013 RMK A01 T03060172  RH  045%=      5-min Rain = 0
KPA1 132004Z 09007KT 31/17 A3013 RMK A01 T03050172  RH  045%=      5-min Rain = 0
KPA1 132005Z 10005KT 30/17 A3013 RMK A01 T03030174  RH  046%=      5-min Rain = 0
KPA1 132006Z 10010KT 30/18 A3013 RMK A01 T03040182  RH  048%=      5-min Rain = 0
KPA1 132007Z 08009KT 31/18 A3013 RMK A01 T03050181  RH  048%=      5-min Rain = 0
KPA1 132008Z 10008KT 31/18 A3013 RMK A01 T03050182  RH  048%=      5-min Rain = 0
KPA1 132009Z 08009KT 31/18 A3013 RMK A01 T03070179  RH  046%=      5-min Rain = 0
KPA1 132010Z 05009KT 31/18 A3013 RMK A01 T03070175  RH  045%=      5-min Rain = 0
KPA1 132011Z 06008KT 31/17 A3013 RMK A01 T03050174  RH  046%=      5-min Rain = 0
KPA1 132012Z 07007KT 30/17 A3013 RMK A01 T03040173  RH  045%=      5-min Rain = 0
KPA1 132013Z 08004KT 30/17 A3013 RMK A01 T03030174  RH  046%=      5-min Rain = 0
KPA1 132014Z 10009KT 31/18 A3013 RMK A01 T03050179  RH  047%=      5-min Rain = 0
KPA1 132015Z 09009KT 31/17 A3013 RMK A01 T03060173  RH  045%=      5-min Rain = 0
KPA1 132016Z 07007KT 31/18 A3013 RMK A01 T03060176  RH  046%=      5-min Rain = 0
KPA1 132017Z 08008KT 31/18 A3013 RMK A01 T03060177  RH  046%=      5-min Rain = 0
KPA1 132018Z 09007KT 31/18 A3013 RMK A01 T03050177  RH  046%=      5-min Rain = 0
KPA1 132019Z 08007KT 31/17 A3013 RMK A01 T03050173  RH  045%=      5-min Rain = 0
KPA1 132020Z 08007KT 31/17 A3013 RMK A01 T03050171  RH  045%=      5-min Rain = 0
KPA1 132021Z 05007KT 30/18 A3013 RMK A01 T03040175  RH  046%=      5-min Rain = 0
KPA1 132022Z 05008KT 30/17 A3013 RMK A01 T03040174  RH  046%=      5-min Rain = 0
KPA1 132023Z 05006KT 30/17 A3013 RMK A01 T03040173  RH  045%=      5-min Rain = 0
KPA1 132024Z 07005KT 31/18 A3013 RMK A01 T03050182  RH  048%=      5-min Rain = 0
KPA1 132025Z 04002KT 31/17 A3013 RMK A01 T03090170  RH  044%=      5-min Rain = 0
KPA1 132026Z 04003KT 31/17 A3013 RMK A01 T03080170  RH  044%=      5-min Rain = 0
KPA1 132027Z 04006KT 31/18 A3012 RMK A01 T03060175  RH  045%=      5-min Rain = 0
KPA1 132028Z 08010KT 31/18 A3012 RMK A01 T03070183  RH  047%=      5-min Rain = 0
KPA1 132029Z 09007KT 31/18 A3012 RMK A01 T03080183  RH  047%=      5-min Rain = 0
KPA1 132030Z 07007KT 31/18 A3012 RMK A01 T03090178  RH  046%=      5-min Rain = 0
KPA1 132031Z 07008KT 31/18 A3012 RMK A01 T03080179  RH  046%=      5-min Rain = 0
KPA1 132032Z 07007KT 31/18 A3012 RMK A01 T03070178  RH  046%=      5-min Rain = 0
KPA1 132033Z 08007KT 31/17 A3012 RMK A01 T03070173  RH  045%=      5-min Rain = 0
KPA1 132034Z 06006KT 31/18 A3012 RMK A01 T03050177  RH  046%=      5-min Rain = 0
KPA1 132035Z 06006KT 31/18 A3012 RMK A01 T03050178  RH  047%=      5-min Rain = 0
KPA1 132036Z 07006KT 31/18 A3012 RMK A01 T03050183  RH  048%=      5-min Rain = 0
KPA1 132037Z 08007KT 31/19 A3012 RMK A01 T03060187  RH  049%=      5-min Rain = 0
KPA1 132038Z 09007KT 31/18 A3012 RMK A01 T03080184  RH  048%=      5-min Rain = 0
KPA1 132039Z 09006KT 31/18 A3012 RMK A01 T03090182  RH  047%=      5-min Rain = 0
KPA1 132040Z 11006KT 31/18 A3012 RMK A01 T03100183  RH  047%=      5-min Rain = 0
KPA1 132041Z 10006KT 31/18 A3012 RMK A01 T03100183  RH  047%=      5-min Rain = 0
KPA1 132042Z 11008KT 31/18 A3012 RMK A01 T03100181  RH  046%=      5-min Rain = 0
KPA1 132043Z 11006KT 31/18 A3012 RMK A01 T03110180  RH  046%=      5-min Rain = 0
KPA1 132044Z 10008KT 31/18 A3012 RMK A01 T03110183  RH  046%=      5-min Rain = 0
KPA1 132045Z 08009KT 31/18 A3012 RMK A01 T03110183  RH  046%=      5-min Rain = 0
KPA1 132046Z 09009KT 31/18 A3012 RMK A01 T03100178  RH  045%=      5-min Rain = 0
KPA1 132047Z 10008KT 31/18 A3012 RMK A01 T03090179  RH  046%=      5-min Rain = 0
KPA1 132048Z 10006KT 31/18 A3012 RMK A01 T03080177  RH  046%=      5-min Rain = 0
KPA1 132049Z 10007KT 31/18 A3012 RMK A01 T03090181  RH  047%=      5-min Rain = 0
KPA1 132050Z 08008KT 31/18 A3012 RMK A01 T03110178  RH  045%=      5-min Rain = 0
KPA1 132051Z 09008KT 31/18 A3012 RMK A01 T03090179  RH  046%=      5-min Rain = 0
KPA1 132052Z 09008KT 31/18 A3012 RMK A01 T03080181  RH  047%=      5-min Rain = 0
KPA1 132053Z 10007KT 31/18 A3012 RMK A01 T03080178  RH  046%=      5-min Rain = 0
KPA1 132054Z 09006KT 31/18 A3012 RMK A01 T03080176  RH  045%=      5-min Rain = 0
KPA1 132055Z 08008KT 31/18 A3012 RMK A01 T03080181  RH  047%=      5-min Rain = 0
KPA1 132056Z 10007KT 31/18 A3012 RMK A01 T03090179  RH  046%=      5-min Rain = 0
KPA1 132057Z 09005KT 31/18 A3012 RMK A01 T03090179  RH  046%=      5-min Rain = 0
KPA1 132058Z 08008KT 31/19 A3012 RMK A01 T03080185  RH  048%=      5-min Rain = 0
KPA1 132059Z 07009KT 31/19 A3012 RMK A01 T03090186  RH  048%=      5-min Rain = 0
KPA1 132100Z 07008KT 31/19 A3012 RMK A01 T03090186  RH  048%=      5-min Rain = 0
KPA1 132101Z 08007KT 31/19 A3012 RMK A01 T03080187  RH  049%=      5-min Rain = 0
KPA1 132102Z 09007KT 31/18 A3012 RMK A01 T03090181  RH  046%=      5-min Rain = 0
KPA1 132103Z 09006KT 31/18 A3012 RMK A01 T03090181  RH  047%=      5-min Rain = 0
KPA1 132104Z 08008KT 31/18 A3012 RMK A01 T03090182  RH  047%=      5-min Rain = 0
KPA1 132105Z 09007KT 31/18 A3012 RMK A01 T03090184  RH  048%=      5-min Rain = 0
KPA1 132106Z 08006KT 31/18 A3011 RMK A01 T03090181  RH  047%=      5-min Rain = 0
KPA1 132107Z 07008KT 31/19 A3011 RMK A01 T03080186  RH  048%=      5-min Rain = 0
KPA1 132108Z 07010KT 31/19 A3011 RMK A01 T03080186  RH  048%=      5-min Rain = 0
KPA1 132109Z 08008KT 31/18 A3011 RMK A01 T03080183  RH  047%=      5-min Rain = 0
KPA1 132110Z 07007KT 31/18 A3011 RMK A01 T03090181  RH  046%=      5-min Rain = 0
KPA1 132111Z 07005KT 31/18 A3011 RMK A01 T03090184  RH  047%=      5-min Rain = 0
KPA1 132112Z 09005KT 31/18 A3011 RMK A01 T03100183  RH  047%=      5-min Rain = 0
KPA1 132113Z 08006KT 31/19 A3011 RMK A01 T03110185  RH  047%=      5-min Rain = 0
KPA1 132114Z 06004KT 31/18 A3011 RMK A01 T03110184  RH  047%=      5-min Rain = 0
KPA1 132115Z 09007KT 31/19 A3011 RMK A01 T03110187  RH  048%=      5-min Rain = 0
KPA1 132116Z 08007KT 31/18 A3011 RMK A01 T03110181  RH  046%=      5-min Rain = 0
KPA1 132117Z 07007KT 31/19 A3011 RMK A01 T03090186  RH  048%=      5-min Rain = 0
KPA1 132118Z 05007KT 31/18 A3011 RMK A01 T03090183  RH  047%=      5-min Rain = 0
KPA1 132119Z 07006KT 31/18 A3011 RMK A01 T03090182  RH  047%=      5-min Rain = 0
KPA1 132120Z 08006KT 31/19 A3011 RMK A01 T03090186  RH  048%=      5-min Rain = 0
KPA1 132121Z 08007KT 31/19 A3011 RMK A01 T03090186  RH  048%=      5-min Rain = 0
KPA1 132122Z 08007KT 31/19 A3011 RMK A01 T03090187  RH  048%=      5-min Rain = 0
KPA1 132123Z 08008KT 31/19 A3011 RMK A01 T03090193  RH  050%=      5-min Rain = 0
KPA1 132124Z 08008KT 31/19 A3011 RMK A01 T03120189  RH  048%=      5-min Rain = 0
KPA1 132125Z 09008KT 31/19 A3011 RMK A01 T03120190  RH  048%=      5-min Rain = 0
KPA1 132126Z 09007KT 31/19 A3011 RMK A01 T03120191  RH  049%=      5-min Rain = 0
KPA1 132127Z 11008KT 31/18 A3011 RMK A01 T03110184  RH  047%=      5-min Rain = 0
KPA1 132128Z 11009KT 31/18 A3011 RMK A01 T03110179  RH  045%=      5-min Rain = 0
KPA1 132129Z 09007KT 31/18 A3011 RMK A01 T03130183  RH  046%=      5-min Rain = 0
KPA1 132130Z 09005KT 31/18 A3011 RMK A01 T03130182  RH  046%=      5-min Rain = 0
KPA1 132131Z 09006KT 31/18 A3011 RMK A01 T03140182  RH  045%=      5-min Rain = 0
KPA1 132132Z 07007KT 31/18 A3011 RMK A01 T03140180  RH  045%=      5-min Rain = 0
KPA1 132133Z 08007KT 31/18 A3011 RMK A01 T03140183  RH  045%=      5-min Rain = 0
KPA1 132134Z 08007KT 31/17 A3011 RMK A01 T03130174  RH  043%=      5-min Rain = 0
KPA1 132135Z 09005KT 31/18 A3011 RMK A01 T03100177  RH  045%=      5-min Rain = 0
KPA1 132136Z 10007KT 31/18 A301 RMK A01 T03090179  RH  046%=      5-min Rain = 0
KPA1 132137Z 08009KT 31/18 A301 RMK A01 T03110183  RH  046%=      5-min Rain = 0
KPA1 132138Z 08009KT 31/18 A301 RMK A01 T03130177  RH  044%=      5-min Rain = 0
KPA1 132139Z 08009KT 31/18 A3011 RMK A01 T03130179  RH  045%=      5-min Rain = 0
KPA1 132140Z 08008KT 31/18 A301 RMK A01 T03120180  RH  045%=      5-min Rain = 0
KPA1 132141Z 09008KT 31/18 A301 RMK A01 T03130179  RH  045%=      5-min Rain = 0
KPA1 132142Z 08006KT 31/18 A301 RMK A01 T03120175  RH  044%=      5-min Rain = 0
KPA1 132143Z 08006KT 31/18 A301 RMK A01 T03100178  RH  045%=      5-min Rain = 0
KPA1 132144Z 07007KT 31/18 A301 RMK A01 T03100177  RH  045%=      5-min Rain = 0
KPA1 132145Z 07006KT 31/18 A301 RMK A01 T03100176  RH  045%=      5-min Rain = 0
KPA1 132146Z 09008KT 31/18 A301 RMK A01 T03110176  RH  045%=      5-min Rain = 0
KPA1 132147Z 10008KT 31/18 A301 RMK A01 T03100178  RH  045%=      5-min Rain = 0
KPA1 132148Z 09009KT 31/18 A301 RMK A01 T03110175  RH  044%=      5-min Rain = 0
KPA1 132149Z 09009KT 31/17 A301 RMK A01 T03120174  RH  043%=      5-min Rain = 0
KPA1 132150Z 09007KT 31/17 A301 RMK A01 T03130168  RH  042%=      5-min Rain = 0
KPA1 132151Z 09006KT 31/17 A301 RMK A01 T03120168  RH  042%=      5-min Rain = 0
KPA1 132152Z 11007KT 31/17 A301 RMK A01 T03120172  RH  043%=      5-min Rain = 0
KPA1 132153Z 12007KT 31/18 A301 RMK A01 T03120178  RH  045%=      5-min Rain = 0
KPA1 132154Z 11007KT 31/18 A301 RMK A01 T03130184  RH  046%=      5-min Rain = 0
KPA1 132155Z 11011KT 32/18 A301 RMK A01 T03160181  RH  045%=      5-min Rain = 0
KPA1 132156Z 11009KT 32/18 A301 RMK A01 T03160180  RH  044%=      5-min Rain = 0
KPA1 132157Z 12010KT 32/18 A301 RMK A01 T03150179  RH  044%=      5-min Rain = 0
KPA1 132158Z 13009KT 31/18 A301 RMK A01 T03140182  RH  045%=      5-min Rain = 0
KPA1 132159Z 12009KT 31/19 A301 RMK A01 T03140185  RH  046%=      5-min Rain = 0
KPA1 132200Z 12009KT 32/19 A301 RMK A01 T03150185  RH  046%=      5-min Rain = 0
KPA1 132201Z 12012KT 32/18 A301 RMK A01 T03150181  RH  045%=      5-min Rain = 0
KPA1 132202Z 12010KT 31/18 A301 RMK A01 T03140181  RH  045%=      5-min Rain = 0
KPA1 132203Z 12009KT 31/18 A301 RMK A01 T03140181  RH  045%=      5-min Rain = 0
KPA1 132204Z 12008KT 32/18 A301 RMK A01 T03150183  RH  046%=      5-min Rain = 0
KPA1 132205Z 13009KT 32/18 A3009 RMK A01 T03160184  RH  045%=      5-min Rain = 0
KPA1 132206Z 13009KT 32/18 A3009 RMK A01 T03170183  RH  045%=      5-min Rain = 0
KPA1 132207Z 12008KT 32/19 A3009 RMK A01 T03170185  RH  046%=      5-min Rain = 0
KPA1 132208Z 12010KT 32/18 A3009 RMK A01 T03180181  RH  044%=      5-min Rain = 0
KPA1 132209Z 13008KT 32/18 A3009 RMK A01 T03150179  RH  044%=      5-min Rain = 0
KPA1 132210Z 13007KT 31/18 A3009 RMK A01 T03140182  RH  045%=      5-min Rain = 0
KPA1 132211Z 13008KT 31/18 A3009 RMK A01 T03140181  RH  045%=      5-min Rain = 0
KPA1 132212Z 12008KT 31/19 A3009 RMK A01 T03140185  RH  046%=      5-min Rain = 0
KPA1 132213Z 11008KT 32/19 A3009 RMK A01 T03150190  RH  047%=      5-min Rain = 0
KPA1 132214Z 12009KT 32/19 A3009 RMK A01 T03170192  RH  047%=      5-min Rain = 0
KPA1 132215Z 13010KT 32/18 A3009 RMK A01 T03180184  RH  045%=      5-min Rain = 0
KPA1 132216Z 13009KT 32/18 A3009 RMK A01 T03160184  RH  046%=      5-min Rain = 0
KPA1 132217Z 13011KT 32/19 A3009 RMK A01 T03150185  RH  046%=      5-min Rain = 0
KPA1 132218Z 13009KT 32/19 A3009 RMK A01 T03150185  RH  046%=      5-min Rain = 0
KPA1 132219Z 12010KT 32/19 A3009 RMK A01 T03160186  RH  046%=      5-min Rain = 0
KPA1 132220Z 12010KT 31/18 A3009 RMK A01 T03140180  RH  045%=      5-min Rain = 0
KPA1 132221Z 11009KT 31/18 A3009 RMK A01 T03130180  RH  045%=      5-min Rain = 0
KPA1 132222Z 10011KT 31/18 A3009 RMK A01 T03120184  RH  046%=      5-min Rain = 0
KPA1 132223Z 12012KT 31/18 A3009 RMK A01 T03130183  RH  046%=      5-min Rain = 0
KPA1 132224Z 12009KT 31/18 A3009 RMK A01 T03120179  RH  045%=      5-min Rain = 0
KPA1 132225Z 12009KT 31/18 A3009 RMK A01 T03110181  RH  046%=      5-min Rain = 0
KPA1 132226Z 12011KT 31/18 A3009 RMK A01 T03120181  RH  046%=      5-min Rain = 0
KPA1 132227Z 12012KT 31/18 A3009 RMK A01 T03110182  RH  046%=      5-min Rain = 0
KPA1 132228Z 11008KT 31/18 A3009 RMK A01 T03100180  RH  046%=      5-min Rain = 0
KPA1 132229Z 12009KT 31/18 A3009 RMK A01 T03090182  RH  047%=      5-min Rain = 0
KPA1 132230Z 14009KT 31/19 A3009 RMK A01 T03090188  RH  049%=      5-min Rain = 0
KPA1 132231Z 15009KT 31/19 A3009 RMK A01 T03110190  RH  049%=      5-min Rain = 0
KPA1 132232Z 15011KT 31/18 A3009 RMK A01 T03130184  RH  046%=      5-min Rain = 0
KPA1 132233Z 14010KT 31/19 A3009 RMK A01 T03130185  RH  047%=      5-min Rain = 0
KPA1 132234Z 14011KT 31/19 A3009 RMK A01 T03120186  RH  047%=      5-min Rain = 0
KPA1 132235Z 14009KT 31/18 A3009 RMK A01 T03120184  RH  047%=      5-min Rain = 0
KPA1 132236Z 12011KT 31/19 A3009 RMK A01 T03110186  RH  047%=      5-min Rain = 0
KPA1 132237Z 11012KT 31/19 A3009 RMK A01 T03130187  RH  047%=      5-min Rain = 0
KPA1 132238Z 11010KT 31/18 A3009 RMK A01 T03130183  RH  046%=      5-min Rain = 0
KPA1 132239Z 11008KT 31/18 A301 RMK A01 T03120183  RH  046%=      5-min Rain = 0
KPA1 132240Z 12007KT 31/19 A301 RMK A01 T03120185  RH  047%=      5-min Rain = 0
KPA1 132241Z 11007KT 31/18 A301 RMK A01 T03130182  RH  046%=      5-min Rain = 0
KPA1 132242Z 11008KT 31/18 A301 RMK A01 T03120182  RH  046%=      5-min Rain = 0
KPA1 132243Z 11009KT 31/19 A301 RMK A01 T03110186  RH  047%=      5-min Rain = 0
KPA1 132244Z 10010KT 31/18 A301 RMK A01 T03110180  RH  046%=      5-min Rain = 0
KPA1 132245Z 10008KT 31/18 A301 RMK A01 T03080179  RH  046%=      5-min Rain = 0
KPA1 132246Z 12008KT 31/18 A301 RMK A01 T03070181  RH  047%=      5-min Rain = 0
KPA1 132247Z 12009KT 31/19 A301 RMK A01 T03070186  RH  048%=      5-min Rain = 0
KPA1 132248Z 14008KT 31/19 A301 RMK A01 T03090190  RH  049%=      5-min Rain = 0
KPA1 132249Z 15007KT 31/19 A301 RMK A01 T03110186  RH  047%=      5-min Rain = 0
KPA1 132250Z 15007KT 31/19 A301 RMK A01 T03120187  RH  047%=      5-min Rain = 0
KPA1 132251Z 14009KT 31/19 A301 RMK A01 T03140186  RH  047%=      5-min Rain = 0
KPA1 132252Z 13008KT 31/19 A301 RMK A01 T03130188  RH  047%=      5-min Rain = 0
KPA1 132253Z 12009KT 31/19 A301 RMK A01 T03120189  RH  048%=      5-min Rain = 0
KPA1 132254Z 13010KT 31/19 A301 RMK A01 T03130185  RH  047%=      5-min Rain = 0
KPA1 132255Z 13011KT 31/18 A301 RMK A01 T03120184  RH  047%=      5-min Rain = 0
KPA1 132256Z 13010KT 31/18 A301 RMK A01 T03110181  RH  046%=      5-min Rain = 0
KPA1 132257Z 13009KT 31/18 A301 RMK A01 T03090182  RH  046%=      5-min Rain = 0
KPA1 132258Z 13008KT 31/18 A301 RMK A01 T03090184  RH  047%=      5-min Rain = 0
KPA1 132259Z 13007KT 31/19 A301 RMK A01 T03090185  RH  047%=      5-min Rain = 0
KPA1 132300Z 14009KT 31/18 A301 RMK A01 T03110184  RH  047%=      5-min Rain = 0
KPA1 132301Z 14008KT 31/18 A301 RMK A01 T03120183  RH  046%=      5-min Rain = 0
KPA1 132302Z 14010KT 31/19 A301 RMK A01 T03110185  RH  047%=      5-min Rain = 0
KPA1 132303Z 12010KT 31/19 A301 RMK A01 T03100185  RH  047%=      5-min Rain = 0
KPA1 132304Z 11011KT 31/19 A301 RMK A01 T03090186  RH  048%=      5-min Rain = 0
KPA1 132305Z 11011KT 31/18 A301 RMK A01 T03080183  RH  047%=      5-min Rain = 0
KPA1 132306Z 10010KT 31/19 A301 RMK A01 T03070185  RH  048%=      5-min Rain = 0
KPA1 132307Z 11009KT 31/18 A301 RMK A01 T03070183  RH  047%=      5-min Rain = 0
KPA1 132308Z 11009KT 31/18 A301 RMK A01 T03070183  RH  048%=      5-min Rain = 0
KPA1 132309Z 11009KT 31/19 A301 RMK A01 T03070185  RH  048%=      5-min Rain = 0
KPA1 132310Z 12008KT 31/19 A301 RMK A01 T03070185  RH  048%=      5-min Rain = 0
KPA1 132311Z 12007KT 31/19 A301 RMK A01 T03080188  RH  049%=      5-min Rain = 0
KPA1 132312Z 12008KT 31/19 A301 RMK A01 T03100187  RH  048%=      5-min Rain = 0
KPA1 132313Z 13008KT 31/19 A301 RMK A01 T03110186  RH  047%=      5-min Rain = 0
KPA1 132314Z 13011KT 31/19 A301 RMK A01 T03110185  RH  047%=      5-min Rain = 0
KPA1 132315Z 13009KT 31/19 A301 RMK A01 T03090187  RH  048%=      5-min Rain = 0
KPA1 132316Z 13008KT 31/19 A301 RMK A01 T03080191  RH  050%=      5-min Rain = 0
KPA1 132317Z 13010KT 31/19 A301 RMK A01 T03080188  RH  049%=      5-min Rain = 0
KPA1 132318Z 13008KT 31/19 A301 RMK A01 T03080187  RH  049%=      5-min Rain = 0
KPA1 132319Z 13010KT 31/19 A301 RMK A01 T03070187  RH  049%=      5-min Rain = 0
KPA1 132320Z 13011KT 31/19 A301 RMK A01 T03060187  RH  049%=      5-min Rain = 0
KPA1 132321Z 14010KT 31/19 A301 RMK A01 T03060186  RH  049%=      5-min Rain = 0
KPA1 132322Z 13008KT 31/19 A301 RMK A01 T03060189  RH  050%=      5-min Rain = 0
KPA1 132323Z 13008KT 31/19 A301 RMK A01 T03060190  RH  050%=      5-min Rain = 0
KPA1 132324Z 13007KT 31/19 A301 RMK A01 T03060191  RH  050%=      5-min Rain = 0
KPA1 132325Z 11006KT 31/19 A301 RMK A01 T03080191  RH  050%=      5-min Rain = 0
KPA1 132326Z 11007KT 31/19 A301 RMK A01 T03090190  RH  049%=      5-min Rain = 0
KPA1 132327Z 11008KT 31/19 A301 RMK A01 T03090190  RH  049%=      5-min Rain = 0
KPA1 132328Z 12007KT 31/19 A301 RMK A01 T03070188  RH  049%=      5-min Rain = 0
KPA1 132329Z 13007KT 31/19 A301 RMK A01 T03070189  RH  049%=      5-min Rain = 0
KPA1 132330Z 13007KT 31/19 A301 RMK A01 T03070190  RH  050%=      5-min Rain = 0
KPA1 132331Z 14010KT 31/19 A301 RMK A01 T03080189  RH  049%=      5-min Rain = 0
KPA1 132332Z 14009KT 31/19 A301 RMK A01 T03070187  RH  049%=      5-min Rain = 0
KPA1 132333Z 13009KT 31/19 A301 RMK A01 T03060185  RH  048%=      5-min Rain = 0
KPA1 132334Z 14009KT 31/19 A301 RMK A01 T03050185  RH  049%=      5-min Rain = 0
KPA1 132335Z 14009KT 30/19 A301 RMK A01 T03040185  RH  049%=      5-min Rain = 0
KPA1 132336Z 13007KT 30/19 A301 RMK A01 T03040186  RH  049%=      5-min Rain = 0
KPA1 132337Z 12009KT 30/19 A301 RMK A01 T03040186  RH  049%=      5-min Rain = 0
KPA1 132338Z 14009KT 30/19 A301 RMK A01 T03040185  RH  049%=      5-min Rain = 0
KPA1 132339Z 13008KT 30/19 A301 RMK A01 T03040186  RH  049%=      5-min Rain = 0
KPA1 132340Z 13009KT 30/19 A301 RMK A01 T03040187  RH  050%=      5-min Rain = 0
KPA1 132341Z 12009KT 30/19 A301 RMK A01 T03040190  RH  050%=      5-min Rain = 0
KPA1 132342Z 12008KT 31/19 A301 RMK A01 T03050190  RH  050%=      5-min Rain = 0
KPA1 132343Z 12007KT 30/19 A301 RMK A01 T03040190  RH  050%=      5-min Rain = 0
KPA1 132344Z 12007KT 30/19 A301 RMK A01 T03040190  RH  051%=      5-min Rain = 0
KPA1 132345Z 12008KT 30/19 A301 RMK A01 T03040190  RH  051%=      5-min Rain = 0
KPA1 132346Z 12008KT 30/19 A301 RMK A01 T03030188  RH  050%=      5-min Rain = 0
KPA1 132347Z 12008KT 30/19 A301 RMK A01 T03040188  RH  050%=      5-min Rain = 0
KPA1 132348Z 11008KT 30/18 A301 RMK A01 T03030184  RH  049%=      5-min Rain = 0
KPA1 132349Z 11008KT 30/18 A301 RMK A01 T03030184  RH  049%=      5-min Rain = 0
KPA1 132350Z 12006KT 30/19 A301 RMK A01 T03020186  RH  050%=      5-min Rain = 0
KPA1 132351Z 12008KT 30/19 A301 RMK A01 T03030187  RH  050%=      5-min Rain = 0
KPA1 132352Z 13008KT 30/19 A301 RMK A01 T03030186  RH  050%=      5-min Rain = 0
KPA1 132353Z 13007KT 30/19 A301 RMK A01 T03020189  RH  051%=      5-min Rain = 0
KPA1 132354Z 12009KT 30/19 A301 RMK A01 T03010190  RH  051%=      5-min Rain = 0
KPA1 132355Z 11006KT 30/19 A301 RMK A01 T03010192  RH  052%=      5-min Rain = 0
KPA1 132356Z 12006KT 30/19 A301 RMK A01 T03000193  RH  053%=      5-min Rain = 0
KPA1 132357Z 11006KT 30/19 A301 RMK A01 T03000191  RH  052%=      5-min Rain = 0
KPA1 132358Z 11007KT 30/19 A301 RMK A01 T03000190  RH  052%=      5-min Rain = 0
KPA1 132359Z 12006KT 30/19 A301 RMK A01 T03000188  RH  051%=      5-min Rain = 0
KPA1 140000Z 12006KT 30/19 A301 RMK A01 T03000188  RH  051%=      5-min Rain = 0
KPA1 140001Z 11007KT 30/19 A301 RMK A01 T03000187  RH  051%=      5-min Rain = 0
KPA1 140002Z 11007KT 30/18 A301 RMK A01 T03000184  RH  050%=      5-min Rain = 0
KPA1 140003Z 11008KT 30/19 A301 RMK A01 T03000186  RH  051%=      5-min Rain = 0
KPA1 140004Z 11007KT 30/19 A301 RMK A01 T02990186  RH  051%=      5-min Rain = 0
KPA1 140005Z 11008KT 30/19 A301 RMK A01 T02990188  RH  051%=      5-min Rain = 0
KPA1 140006Z 12008KT 30/19 A301 RMK A01 T02990187  RH  051%=      5-min Rain = 0
KPA1 140007Z 12008KT 30/18 A301 RMK A01 T02980183  RH  050%=      5-min Rain = 0
KPA1 140008Z 11009KT 30/19 A301 RMK A01 T02980185  RH  051%=      5-min Rain = 0
KPA1 140009Z 11008KT 30/19 A301 RMK A01 T02990187  RH  051%=      5-min Rain = 0
KPA1 140010Z 11006KT 30/19 A301 RMK A01 T02990187  RH  051%=      5-min Rain = 0
KPA1 140011Z 11006KT 30/19 A301 RMK A01 T02980188  RH  052%=      5-min Rain = 0
KPA1 140012Z 11008KT 30/19 A301 RMK A01 T02980190  RH  052%=      5-min Rain = 0
KPA1 140013Z 12007KT 30/19 A301 RMK A01 T02980190  RH  053%=      5-min Rain = 0
KPA1 140014Z 12008KT 30/19 A301 RMK A01 T02970191  RH  053%=      5-min Rain = 0
KPA1 140015Z 12007KT 30/19 A301 RMK A01 T02960190  RH  053%=      5-min Rain = 0
KPA1 140016Z 12006KT 30/19 A301 RMK A01 T02960192  RH  054%=      5-min Rain = 0
KPA1 140017Z 12006KT 30/20 A301 RMK A01 T02960195  RH  055%=      5-min Rain = 0
KPA1 140018Z 12006KT 30/20 A301 RMK A01 T02970195  RH  055%=      5-min Rain = 0
KPA1 140019Z 12008KT 30/19 A301 RMK A01 T02970190  RH  053%=      5-min Rain = 0
KPA1 140020Z 12007KT 30/19 A3011 RMK A01 T02960189  RH  053%=      5-min Rain = 0
KPA1 140021Z 12008KT 30/19 A3011 RMK A01 T02960190  RH  053%=      5-min Rain = 0
KPA1 140022Z 12006KT 30/19 A3011 RMK A01 T02950190  RH  053%=      5-min Rain = 0
KPA1 140023Z 12007KT 29/19 A3011 RMK A01 T02940192  RH  054%=      5-min Rain = 0
KPA1 140024Z 13007KT 29/19 A3011 RMK A01 T02940190  RH  053%=      5-min Rain = 0
KPA1 140025Z 13006KT 29/19 A3011 RMK A01 T02940192  RH  054%=      5-min Rain = 0
KPA1 140026Z 13008KT 29/19 A3011 RMK A01 T02940192  RH  054%=      5-min Rain = 0
KPA1 140027Z 12007KT 29/19 A3011 RMK A01 T02940189  RH  053%=      5-min Rain = 0
KPA1 140028Z 12006KT 29/19 A3011 RMK A01 T02930191  RH  054%=      5-min Rain = 0
KPA1 140029Z 12008KT 29/19 A3011 RMK A01 T02930189  RH  054%=      5-min Rain = 0
KPA1 140030Z 13008KT 29/19 A3011 RMK A01 T02930190  RH  054%=      5-min Rain = 0
KPA1 140031Z 12008KT 29/19 A3011 RMK A01 T02930190  RH  054%=      5-min Rain = 0
KPA1 140032Z 12008KT 29/19 A3011 RMK A01 T02920190  RH  054%=      5-min Rain = 0
KPA1 140033Z 12007KT 29/19 A3011 RMK A01 T02910192  RH  055%=      5-min Rain = 0
KPA1 140034Z 12007KT 29/19 A3011 RMK A01 T02900194  RH  056%=      5-min Rain = 0
KPA1 140035Z 12007KT 29/19 A3011 RMK A01 T02900194  RH  056%=      5-min Rain = 0
KPA1 140036Z 12007KT 29/19 A3011 RMK A01 T02900194  RH  056%=      5-min Rain = 0
KPA1 140037Z 12008KT 29/19 A3011 RMK A01 T02890193  RH  056%=      5-min Rain = 0
KPA1 140038Z 12007KT 29/19 A3011 RMK A01 T02890194  RH  056%=      5-min Rain = 0
KPA1 140039Z 12007KT 29/19 A3011 RMK A01 T02890194  RH  057%=      5-min Rain = 0
KPA1 140040Z 12007KT 29/19 A3011 RMK A01 T02890193  RH  056%=      5-min Rain = 0
KPA1 140041Z 12007KT 29/19 A3011 RMK A01 T02880194  RH  057%=      5-min Rain = 0
KPA1 140042Z 12007KT 29/19 A3011 RMK A01 T02880194  RH  057%=      5-min Rain = 0
KPA1 140043Z 12007KT 29/19 A3011 RMK A01 T02880194  RH  057%=      5-min Rain = 0
KPA1 140044Z 12007KT 29/19 A3011 RMK A01 T02880193  RH  057%=      5-min Rain = 0
KPA1 140045Z 12007KT 29/19 A3011 RMK A01 T02870193  RH  057%=      5-min Rain = 0
KPA1 140046Z 12007KT 29/19 A3011 RMK A01 T02870192  RH  057%=      5-min Rain = 0
KPA1 140047Z 12007KT 29/19 A3011 RMK A01 T02860192  RH  057%=      5-min Rain = 0
KPA1 140048Z 12007KT 29/19 A3011 RMK A01 T02860191  RH  057%=      5-min Rain = 0
KPA1 140049Z 11006KT 29/19 A3011 RMK A01 T02860192  RH  057%=      5-min Rain = 0
KPA1 140050Z 11006KT 29/19 A3011 RMK A01 T02850192  RH  057%=      5-min Rain = 0
KPA1 140051Z 11006KT 29/19 A3011 RMK A01 T02850193  RH  057%=      5-min Rain = 0
KPA1 140052Z 11005KT 29/20 A3011 RMK A01 T02850195  RH  058%=      5-min Rain = 0
KPA1 140053Z 10006KT 28/20 A3011 RMK A01 T02840195  RH  059%=      5-min Rain = 0
KPA1 140054Z 10007KT 28/20 A3011 RMK A01 T02830195  RH  059%=      5-min Rain = 0
KPA1 140055Z 10006KT 28/20 A3011 RMK A01 T02820195  RH  059%=      5-min Rain = 0
KPA1 140056Z 10007KT 28/20 A3011 RMK A01 T02810196  RH  060%=      5-min Rain = 0
KPA1 140057Z 10006KT 28/20 A3011 RMK A01 T02800195  RH  060%=      5-min Rain = 0
KPA1 140058Z 11006KT 28/20 A3011 RMK A01 T02790197  RH  061%=      5-min Rain = 0
KPA1 140059Z 11006KT 28/20 A3011 RMK A01 T02790197  RH  061%=      5-min Rain = 0
KPA1 140100Z 11006KT 28/20 A3011 RMK A01 T02780195  RH  061%=      5-min Rain = 0
KPA1 140101Z 11005KT 28/20 A3011 RMK A01 T02780196  RH  061%=      5-min Rain = 0
KPA1 140102Z 11005KT 28/20 A3011 RMK A01 T02770197  RH  062%=      5-min Rain = 0
KPA1 140103Z 11005KT 28/20 A3011 RMK A01 T02760197  RH  062%=      5-min Rain = 0
KPA1 140104Z 12006KT 28/20 A3011 RMK A01 T02760197  RH  062%=      5-min Rain = 0
KPA1 140105Z 11005KT 28/20 A3011 RMK A01 T02750198  RH  063%=      5-min Rain = 0
KPA1 140106Z 12005KT 28/20 A3011 RMK A01 T02750199  RH  063%=      5-min Rain = 0
KPA1 140107Z 11006KT 27/20 A3011 RMK A01 T02740197  RH  063%=      5-min Rain = 0
KPA1 140108Z 11006KT 27/20 A3011 RMK A01 T02740198  RH  063%=      5-min Rain = 0
KPA1 140109Z 12005KT 27/20 A3011 RMK A01 T02720199  RH  064%=      5-min Rain = 0
KPA1 140110Z 11005KT 27/20 A3011 RMK A01 T02710199  RH  065%=      5-min Rain = 0
KPA1 140111Z 11005KT 27/20 A3012 RMK A01 T02700197  RH  064%=      5-min Rain = 0
KPA1 140112Z 11005KT 27/20 A3012 RMK A01 T02690198  RH  065%=      5-min Rain = 0
KPA1 140113Z 11006KT 27/20 A3012 RMK A01 T02680199  RH  066%=      5-min Rain = 0
KPA1 140114Z 11005KT 27/20 A3012 RMK A01 T02670199  RH  066%=      5-min Rain = 0
KPA1 140115Z 11005KT 27/20 A3012 RMK A01 T02660199  RH  067%=      5-min Rain = 0
KPA1 140116Z 11005KT 27/20 A3012 RMK A01 T02650199  RH  067%=      5-min Rain = 0
KPA1 140117Z 11005KT 26/20 A3012 RMK A01 T02640199  RH  068%=      5-min Rain = 0
KPA1 140118Z 11005KT 26/20 A3012 RMK A01 T02630200  RH  068%=      5-min Rain = 0
KPA1 140119Z 12005KT 26/20 A3012 RMK A01 T02610200  RH  069%=      5-min Rain = 0
KPA1 140120Z 12005KT 26/20 A3012 RMK A01 T02610200  RH  069%=      5-min Rain = 0
KPA1 140121Z 12005KT 26/20 A3012 RMK A01 T02600201  RH  070%=      5-min Rain = 0
KPA1 140122Z 12005KT 26/20 A3012 RMK A01 T02590201  RH  070%=      5-min Rain = 0
KPA1 140123Z 12005KT 26/20 A3012 RMK A01 T02580201  RH  071%=      5-min Rain = 0
KPA1 140124Z 12005KT 26/20 A3012 RMK A01 T02570201  RH  071%=      5-min Rain = 0
KPA1 140125Z 12005KT 26/20 A3012 RMK A01 T02570202  RH  072%=      5-min Rain = 0
KPA1 140126Z 12004KT 26/20 A3012 RMK A01 T02560202  RH  072%=      5-min Rain = 0
KPA1 140127Z 11004KT 26/20 A3012 RMK A01 T02550202  RH  073%=      5-min Rain = 0
KPA1 140128Z 11004KT 26/20 A3012 RMK A01 T02550203  RH  073%=      5-min Rain = 0
KPA1 140129Z 11005KT 25/20 A3012 RMK A01 T02540204  RH  074%=      5-min Rain = 0
KPA1 140130Z 11004KT 25/20 A3012 RMK A01 T02530204  RH  074%=      5-min Rain = 0
KPA1 140131Z 11004KT 25/21 A3012 RMK A01 T02530205  RH  075%=      5-min Rain = 0
KPA1 140132Z 11005KT 25/21 A3012 RMK A01 T02520205  RH  075%=      5-min Rain = 0
KPA1 140133Z 11005KT 25/21 A3012 RMK A01 T02510206  RH  076%=      5-min Rain = 0
KPA1 140134Z 11005KT 25/21 A3012 RMK A01 T02500205  RH  076%=      5-min Rain = 0
KPA1 140135Z 11005KT 25/21 A3013 RMK A01 T02500205  RH  076%=      5-min Rain = 0
KPA1 140136Z 11005KT 25/21 A3013 RMK A01 T02490206  RH  077%=      5-min Rain = 0
KPA1 140137Z 11006KT 25/21 A3013 RMK A01 T02480205  RH  077%=      5-min Rain = 0
KPA1 140138Z 11006KT 25/21 A3013 RMK A01 T02480205  RH  077%=      5-min Rain = 0
KPA1 140139Z 11006KT 25/21 A3013 RMK A01 T02470205  RH  078%=      5-min Rain = 0
KPA1 140140Z 10005KT 25/21 A3013 RMK A01 T02460206  RH  078%=      5-min Rain = 0
KPA1 140141Z 10005KT 25/21 A3013 RMK A01 T02450206  RH  079%=      5-min Rain = 0
KPA1 140142Z 10005KT 24/21 A3013 RMK A01 T02440207  RH  079%=      5-min Rain = 0
KPA1 140143Z 10005KT 24/21 A3013 RMK A01 T02440207  RH  080%=      5-min Rain = 0
KPA1 140144Z 10005KT 24/21 A3013 RMK A01 T02430207  RH  080%=      5-min Rain = 0
KPA1 140145Z 10005KT 24/21 A3013 RMK A01 T02420207  RH  081%=      5-min Rain = 0
KPA1 140146Z 11005KT 24/21 A3013 RMK A01 T02420207  RH  081%=      5-min Rain = 0
KPA1 140147Z 11005KT 24/21 A3013 RMK A01 T02410206  RH  081%=      5-min Rain = 0
KPA1 140148Z 11005KT 24/21 A3013 RMK A01 T02410206  RH  081%=      5-min Rain = 0
KPA1 140149Z 11005KT 24/21 A3013 RMK A01 T02400206  RH  081%=      5-min Rain = 0
KPA1 140150Z 11006KT 24/21 A3014 RMK A01 T02400205  RH  081%=      5-min Rain = 0
KPA1 140151Z 11006KT 24/21 A3014 RMK A01 T02390205  RH  081%=      5-min Rain = 0
KPA1 140152Z 11006KT 24/21 A3014 RMK A01 T02390205  RH  081%=      5-min Rain = 0
KPA1 140153Z 11006KT 24/21 A3014 RMK A01 T02390205  RH  081%=      5-min Rain = 0
KPA1 140154Z 11006KT 24/21 A3014 RMK A01 T02390205  RH  081%=      5-min Rain = 0
KPA1 140155Z 11007KT 24/20 A3014 RMK A01 T02390203  RH  081%=      5-min Rain = 0
KPA1 140156Z 11007KT 24/20 A3014 RMK A01 T02390204  RH  081%=      5-min Rain = 0
KPA1 140157Z 11007KT 24/20 A3014 RMK A01 T02390204  RH  081%=      5-min Rain = 0
KPA1 140158Z 11007KT 24/20 A3014 RMK A01 T02390203  RH  080%=      5-min Rain = 0
KPA1 140159Z 11008KT 24/20 A3014 RMK A01 T02390203  RH  080%=      5-min Rain = 0
KPA1 140200Z 11008KT 24/20 A3014 RMK A01 T02390202  RH  080%=      5-min Rain = 0
KPA1 140201Z 11008KT 24/20 A3014 RMK A01 T02390202  RH  080%=      5-min Rain = 0
KPA1 140202Z 11008KT 24/20 A3014 RMK A01 T02400202  RH  079%=      5-min Rain = 0
KPA1 140203Z 12009KT 24/20 A3014 RMK A01 T02400202  RH  079%=      5-min Rain = 0
KPA1 140204Z 11008KT 24/20 A3014 RMK A01 T02400200  RH  078%=      5-min Rain = 0
KPA1 140205Z 11008KT 24/20 A3014 RMK A01 T02410201  RH  078%=      5-min Rain = 0
KPA1 140206Z 12008KT 24/20 A3014 RMK A01 T02410200  RH  077%=      5-min Rain = 0
KPA1 140207Z 12008KT 24/20 A3014 RMK A01 T02420199  RH  077%=      5-min Rain = 0
KPA1 140208Z 11008KT 24/20 A3014 RMK A01 T02430199  RH  076%=      5-min Rain = 0
KPA1 140209Z 11008KT 24/20 A3014 RMK A01 T02430199  RH  076%=      5-min Rain = 0
KPA1 140210Z 11007KT 24/20 A3014 RMK A01 T02440199  RH  076%=      5-min Rain = 0
KPA1 140211Z 11007KT 24/20 A3014 RMK A01 T02430199  RH  076%=      5-min Rain = 0
KPA1 140212Z 11007KT 24/20 A3014 RMK A01 T02430200  RH  077%=      5-min Rain = 0
KPA1 140213Z 12008KT 24/20 A3014 RMK A01 T02420200  RH  077%=      5-min Rain = 0
KPA1 140214Z 12007KT 24/20 A3014 RMK A01 T02420199  RH  077%=      5-min Rain = 0
KPA1 140215Z 12007KT 24/20 A3014 RMK A01 T02410199  RH  077%=      5-min Rain = 0
KPA1 140216Z 12007KT 24/20 A3014 RMK A01 T02410199  RH  078%=      5-min Rain = 0
KPA1 140217Z 12007KT 24/20 A3014 RMK A01 T02410199  RH  077%=      5-min Rain = 0
KPA1 140218Z 12007KT 24/20 A3014 RMK A01 T02410199  RH  078%=      5-min Rain = 0
KPA1 140219Z 12007KT 24/20 A3015 RMK A01 T02410199  RH  078%=      5-min Rain = 0
KPA1 140220Z 12007KT 24/20 A3015 RMK A01 T02400199  RH  078%=      5-min Rain = 0
KPA1 140221Z 12007KT 24/20 A3015 RMK A01 T02400200  RH  078%=      5-min Rain = 0
KPA1 140222Z 12007KT 24/20 A3015 RMK A01 T02400200  RH  078%=      5-min Rain = 0
KPA1 140223Z 12008KT 24/20 A3015 RMK A01 T02400200  RH  078%=      5-min Rain = 0
KPA1 140224Z 12008KT 24/20 A3015 RMK A01 T02400199  RH  078%=      5-min Rain = 0
KPA1 140225Z 12007KT 24/20 A3015 RMK A01 T02400199  RH  078%=      5-min Rain = 0
KPA1 140226Z 12007KT 24/20 A3015 RMK A01 T02400199  RH  078%=      5-min Rain = 0
KPA1 140227Z 12007KT 24/20 A3015 RMK A01 T02400199  RH  078%=      5-min Rain = 0
KPA1 140228Z 12007KT 24/20 A3015 RMK A01 T02400199  RH  078%=      5-min Rain = 0
KPA1 140229Z 11006KT 24/20 A3015 RMK A01 T02400198  RH  077%=      5-min Rain = 0
KPA1 140230Z 11007KT 24/20 A3015 RMK A01 T02400199  RH  078%=      5-min Rain = 0
KPA1 140231Z 11006KT 24/20 A3015 RMK A01 T02410199  RH  078%=      5-min Rain = 0
KPA1 140232Z 11006KT 24/20 A3015 RMK A01 T02400198  RH  077%=      5-min Rain = 0
KPA1 140233Z 11006KT 24/20 A3015 RMK A01 T02400198  RH  077%=      5-min Rain = 0
KPA1 140234Z 11006KT 24/20 A3015 RMK A01 T02400199  RH  077%=      5-min Rain = 0
KPA1 140235Z 11007KT 24/20 A3015 RMK A01 T02400198  RH  078%=      5-min Rain = 0
KPA1 140236Z 12007KT 24/20 A3015 RMK A01 T02390198  RH  078%=      5-min Rain = 0
KPA1 140237Z 12007KT 24/20 A3015 RMK A01 T02390198  RH  078%=      5-min Rain = 0
KPA1 140238Z 12007KT 24/20 A3015 RMK A01 T02390198  RH  078%=      5-min Rain = 0
KPA1 140239Z 11008KT 24/20 A3015 RMK A01 T02380198  RH  078%=      5-min Rain = 0
KPA1 140240Z 11007KT 24/20 A3015 RMK A01 T02380198  RH  078%=      5-min Rain = 0
KPA1 140241Z 11007KT 24/20 A3015 RMK A01 T02390198  RH  078%=      5-min Rain = 0
KPA1 140242Z 11007KT 24/20 A3015 RMK A01 T02380198  RH  078%=      5-min Rain = 0
KPA1 140243Z 11007KT 24/20 A3015 RMK A01 T02380198  RH  078%=      5-min Rain = 0
KPA1 140244Z 11007KT 24/20 A3015 RMK A01 T02380198  RH  078%=      5-min Rain = 0
KPA1 140245Z 11007KT 24/20 A3015 RMK A01 T02370198  RH  078%=      5-min Rain = 0
KPA1 140246Z 11007KT 24/20 A3015 RMK A01 T02370197  RH  078%=      5-min Rain = 0
KPA1 140247Z 10007KT 24/20 A3015 RMK A01 T02380198  RH  079%=      5-min Rain = 0
KPA1 140248Z 10008KT 24/20 A3015 RMK A01 T02370199  RH  079%=      5-min Rain = 0
KPA1 140249Z 09008KT 24/20 A3015 RMK A01 T02360198  RH  079%=      5-min Rain = 0
KPA1 140250Z 09008KT 24/20 A3015 RMK A01 T02350198  RH  080%=      5-min Rain = 0
KPA1 140251Z 08008KT 23/20 A3016 RMK A01 T02330198  RH  081%=      5-min Rain = 0
KPA1 140252Z 08008KT 23/20 A3016 RMK A01 T02320198  RH  081%=      5-min Rain = 0
KPA1 140253Z 09008KT 23/20 A3016 RMK A01 T02320198  RH  081%=      5-min Rain = 0
KPA1 140254Z 09007KT 23/20 A3016 RMK A01 T02310197  RH  081%=      5-min Rain = 0
KPA1 140255Z 10007KT 23/20 A3016 RMK A01 T02310197  RH  081%=      5-min Rain = 0
KPA1 140256Z 11007KT 23/20 A3016 RMK A01 T02310196  RH  081%=      5-min Rain = 0
KPA1 140257Z 11006KT 23/20 A3016 RMK A01 T02310196  RH  081%=      5-min Rain = 0
KPA1 140258Z 11006KT 23/20 A3017 RMK A01 T02320196  RH  080%=      5-min Rain = 0
KPA1 140259Z 11005KT 23/20 A3017 RMK A01 T02320196  RH  080%=      5-min Rain = 0
KPA1 140300Z 12004KT 23/20 A3017 RMK A01 T02320197  RH  081%=      5-min Rain = 0
KPA1 140301Z 13004KT 23/20 A3017 RMK A01 T02310197  RH  081%=      5-min Rain = 0
KPA1 140302Z 11004KT 23/20 A3017 RMK A01 T02310197  RH  081%=      5-min Rain = 0
KPA1 140303Z 11005KT 23/20 A3017 RMK A01 T02300197  RH  082%=      5-min Rain = 0
KPA1 140304Z 10005KT 23/20 A3017 RMK A01 T02300197  RH  082%=      5-min Rain = 0
KPA1 140305Z 10005KT 23/20 A3017 RMK A01 T02300197  RH  082%=      5-min Rain = 0
KPA1 140306Z 11005KT 23/20 A3016 RMK A01 T02300198  RH  082%=      5-min Rain = 0
KPA1 140307Z 11004KT 23/20 A3016 RMK A01 T02290198  RH  083%=      5-min Rain = 0
KPA1 140308Z 12004KT 23/20 A3017 RMK A01 T02280198  RH  083%=      5-min Rain = 0
KPA1 140309Z 12005KT 23/20 A3017 RMK A01 T02280198  RH  083%=      5-min Rain = 0
KPA1 140310Z 12004KT 23/20 A3017 RMK A01 T02270198  RH  084%=      5-min Rain = 0
KPA1 140311Z 12004KT 23/20 A3017 RMK A01 T02260198  RH  084%=      5-min Rain = 0
KPA1 140312Z 12004KT 23/20 A3017 RMK A01 T02260198  RH  084%=      5-min Rain = 0
KPA1 140313Z 12005KT 23/20 A3017 RMK A01 T02260197  RH  084%=      5-min Rain = 0
KPA1 140314Z 12005KT 23/20 A3017 RMK A01 T02260197  RH  084%=      5-min Rain = 0
KPA1 140315Z 12005KT 23/20 A3017 RMK A01 T02260197  RH  084%=      5-min Rain = 0
KPA1 140316Z 12004KT 23/20 A3017 RMK A01 T02260198  RH  084%=      5-min Rain = 0
KPA1 140317Z 11005KT 23/20 A3017 RMK A01 T02260198  RH  084%=      5-min Rain = 0
KPA1 140318Z 11005KT 23/20 A3017 RMK A01 T02250198  RH  084%=      5-min Rain = 0
KPA1 140319Z 11005KT 23/20 A3017 RMK A01 T02250198  RH  085%=      5-min Rain = 0
KPA1 140320Z 11006KT 23/20 A3017 RMK A01 T02250197  RH  084%=      5-min Rain = 0
KPA1 140321Z 12006KT 23/20 A3017 RMK A01 T02250197  RH  084%=      5-min Rain = 0
KPA1 140322Z 12006KT 23/20 A3017 RMK A01 T02250197  RH  084%=      5-min Rain = 0
KPA1 140323Z 12006KT 23/20 A3017 RMK A01 T02250198  RH  084%=      5-min Rain = 0
KPA1 140324Z 12006KT 23/20 A3017 RMK A01 T02250198  RH  085%=      5-min Rain = 0
KPA1 140325Z 12007KT 22/20 A3017 RMK A01 T02240198  RH  085%=      5-min Rain = 0
KPA1 140326Z 13007KT 22/20 A3017 RMK A01 T02240199  RH  086%=      5-min Rain = 0
KPA1 140327Z 12007KT 22/20 A3017 RMK A01 T02230199  RH  086%=      5-min Rain = 0
KPA1 140328Z 12008KT 22/20 A3017 RMK A01 T02220199  RH  087%=      5-min Rain = 0
KPA1 140329Z 11008KT 22/20 A3016 RMK A01 T02220199  RH  087%=      5-min Rain = 0
KPA1 140330Z 11008KT 22/20 A3016 RMK A01 T02220199  RH  087%=      5-min Rain = 0
KPA1 140331Z 11008KT 22/20 A3016 RMK A01 T02220199  RH  087%=      5-min Rain = 0
KPA1 140332Z 10008KT 22/20 A3016 RMK A01 T02220198  RH  086%=      5-min Rain = 0
KPA1 140333Z 10008KT 22/20 A3016 RMK A01 T02230198  RH  086%=      5-min Rain = 0
KPA1 140334Z 10008KT 22/20 A3017 RMK A01 T02230197  RH  085%=      5-min Rain = 0
KPA1 140335Z 10008KT 22/20 A3017 RMK A01 T02230197  RH  085%=      5-min Rain = 0
KPA1 140336Z 09008KT 22/20 A3017 RMK A01 T02230197  RH  085%=      5-min Rain = 0
KPA1 140337Z 09008KT 22/20 A3017 RMK A01 T02230197  RH  085%=      5-min Rain = 0
KPA1 140338Z 09008KT 22/20 A3017 RMK A01 T02230197  RH  085%=      5-min Rain = 0
KPA1 140339Z 09008KT 22/20 A3017 RMK A01 T02230197  RH  085%=      5-min Rain = 0
KPA1 140340Z 10008KT 22/20 A3017 RMK A01 T02230196  RH  085%=      5-min Rain = 0
KPA1 140341Z 10007KT 22/20 A3017 RMK A01 T02230196  RH  085%=      5-min Rain = 0
KPA1 140342Z 10007KT 22/20 A3017 RMK A01 T02230196  RH  085%=      5-min Rain = 0
KPA1 140343Z 10007KT 22/20 A3017 RMK A01 T02230196  RH  085%=      5-min Rain = 0
KPA1 140344Z 10006KT 22/20 A3017 RMK A01 T02230196  RH  084%=      5-min Rain = 0
KPA1 140345Z 10006KT 22/20 A3017 RMK A01 T02230196  RH  084%=      5-min Rain = 0
KPA1 140346Z 10007KT 22/20 A3017 RMK A01 T02230196  RH  085%=      5-min Rain = 0
KPA1 140347Z 10007KT 22/20 A3017 RMK A01 T02220196  RH  085%=      5-min Rain = 0
KPA1 140348Z 10007KT 22/20 A3017 RMK A01 T02220196  RH  085%=      5-min Rain = 0
KPA1 140349Z 10007KT 22/20 A3017 RMK A01 T02210195  RH  085%=      5-min Rain = 0
KPA1 140350Z 10007KT 22/20 A3017 RMK A01 T02210196  RH  085%=      5-min Rain = 0
KPA1 140351Z 10007KT 22/20 A3017 RMK A01 T02210195  RH  085%=      5-min Rain = 0
KPA1 140352Z 10007KT 22/20 A3017 RMK A01 T02210195  RH  085%=      5-min Rain = 0
KPA1 140353Z 11006KT 22/20 A3017 RMK A01 T02210195  RH  086%=      5-min Rain = 0
KPA1 140354Z 11007KT 22/20 A3017 RMK A01 T02200195  RH  086%=      5-min Rain = 0
KPA1 140355Z 11007KT 22/20 A3017 RMK A01 T02200195  RH  086%=      5-min Rain = 0
KPA1 140356Z 11006KT 22/20 A3017 RMK A01 T02200195  RH  086%=      5-min Rain = 0
KPA1 140357Z 11006KT 22/20 A3017 RMK A01 T02190195  RH  086%=      5-min Rain = 0
KPA1 140358Z 10006KT 22/20 A3017 RMK A01 T02190195  RH  086%=      5-min Rain = 0
KPA1 140359Z 10007KT 22/20 A3017 RMK A01 T02200195  RH  086%=      5-min Rain = 0
KPA1 140400Z 10007KT 22/20 A3017 RMK A01 T02190195  RH  086%=      5-min Rain = 0
KPA1 140401Z 10007KT 22/20 A3017 RMK A01 T02190195  RH  086%=      5-min Rain = 0
KPA1 140402Z 10007KT 22/20 A3017 RMK A01 T02190195  RH  086%=      5-min Rain = 0
KPA1 140403Z 10006KT 22/20 A3018 RMK A01 T02190195  RH  086%=      5-min Rain = 0
KPA1 140404Z 10007KT 22/19 A3018 RMK A01 T02190194  RH  086%=      5-min Rain = 0
KPA1 140405Z 10007KT 22/19 A3018 RMK A01 T02190194  RH  086%=      5-min Rain = 0
KPA1 140406Z 10006KT 22/19 A3018 RMK A01 T02190194  RH  086%=      5-min Rain = 0
KPA1 140407Z 10006KT 22/19 A3018 RMK A01 T02190194  RH  086%=      5-min Rain = 0
KPA1 140408Z 10006KT 22/19 A3018 RMK A01 T02190194  RH  086%=      5-min Rain = 0
KPA1 140409Z 10006KT 22/19 A3018 RMK A01 T02180193  RH  086%=      5-min Rain = 0
KPA1 140410Z 10006KT 22/19 A3018 RMK A01 T02190193  RH  086%=      5-min Rain = 0
KPA1 140411Z 10006KT 22/19 A3018 RMK A01 T02180193  RH  086%=      5-min Rain = 0
KPA1 140412Z 10005KT 22/19 A3019 RMK A01 T02180193  RH  086%=      5-min Rain = 0
KPA1 140413Z 10005KT 22/19 A3019 RMK A01 T02180193  RH  085%=      5-min Rain = 0
KPA1 140414Z 10005KT 22/19 A3019 RMK A01 T02190194  RH  086%=      5-min Rain = 0
KPA1 140415Z 10005KT 22/19 A3019 RMK A01 T02180193  RH  086%=      5-min Rain = 0
KPA1 140416Z 10005KT 22/19 A3019 RMK A01 T02180194  RH  086%=      5-min Rain = 0
KPA1 140417Z 10005KT 22/19 A3019 RMK A01 T02180194  RH  086%=      5-min Rain = 0
KPA1 140418Z 10005KT 22/19 A3019 RMK A01 T02180194  RH  086%=      5-min Rain = 0
KPA1 140419Z 10005KT 22/19 A3019 RMK A01 T02180194  RH  086%=      5-min Rain = 0
KPA1 140420Z 09006KT 22/19 A3019 RMK A01 T02180194  RH  086%=      5-min Rain = 0
KPA1 140421Z 09005KT 22/19 A3019 RMK A01 T02180193  RH  086%=      5-min Rain = 0
KPA1 140422Z 09005KT 22/19 A3019 RMK A01 T02180193  RH  086%=      5-min Rain = 0
KPA1 140423Z 09006KT 22/19 A302 RMK A01 T02180193  RH  086%=      5-min Rain = 0
KPA1 140424Z 09006KT 22/19 A302 RMK A01 T02180193  RH  086%=      5-min Rain = 0
KPA1 140425Z 09007KT 22/19 A302 RMK A01 T02170193  RH  086%=      5-min Rain = 0
KPA1 140426Z 09006KT 22/19 A302 RMK A01 T02170193  RH  086%=      5-min Rain = 0
KPA1 140427Z 09007KT 22/19 A302 RMK A01 T02170193  RH  086%=      5-min Rain = 0
KPA1 140428Z 09007KT 22/19 A302 RMK A01 T02170193  RH  086%=      5-min Rain = 0
KPA1 140429Z 09007KT 22/19 A302 RMK A01 T02170193  RH  086%=      5-min Rain = 0
KPA1 140430Z 09007KT 22/19 A302 RMK A01 T02170193  RH  086%=      5-min Rain = 0
KPA1 140431Z 10007KT 22/19 A302 RMK A01 T02180193  RH  086%=      5-min Rain = 0
KPA1 140432Z 10007KT 22/19 A302 RMK A01 T02180193  RH  086%=      5-min Rain = 0
KPA1 140433Z 10007KT 22/19 A302 RMK A01 T02180193  RH  086%=      5-min Rain = 0
KPA1 140434Z 10006KT 22/19 A302 RMK A01 T02180193  RH  086%=      5-min Rain = 0
KPA1 140435Z 10006KT 22/19 A302 RMK A01 T02180193  RH  086%=      5-min Rain = 0
KPA1 140436Z 10006KT 22/19 A3021 RMK A01 T02180193  RH  086%=      5-min Rain = 0
KPA1 140437Z 09006KT 22/19 A3021 RMK A01 T02170193  RH  086%=      5-min Rain = 0
KPA1 140438Z 09006KT 22/19 A3021 RMK A01 T02170194  RH  087%=      5-min Rain = 0
KPA1 140439Z 09006KT 22/19 A3021 RMK A01 T02160194  RH  087%=      5-min Rain = 0
KPA1 140440Z 09006KT 22/19 A3021 RMK A01 T02150194  RH  088%=      5-min Rain = 0
KPA1 140441Z 09006KT 21/19 A3021 RMK A01 T02140194  RH  088%=      5-min Rain = 0
KPA1 140442Z 09007KT 21/19 A3021 RMK A01 T02130194  RH  089%=      5-min Rain = 0
KPA1 140443Z 09007KT 21/19 A3021 RMK A01 T02130194  RH  089%=      5-min Rain = 0
KPA1 140444Z 09006KT 21/19 A3021 RMK A01 T02130194  RH  089%=      5-min Rain = 0
KPA1 140445Z 09007KT 21/19 A3021 RMK A01 T02120194  RH  089%=      5-min Rain = 0
KPA1 140446Z 09007KT 21/19 A3021 RMK A01 T02130194  RH  089%=      5-min Rain = 0
KPA1 140447Z 10008KT 21/19 A3021 RMK A01 T02130193  RH  089%=      5-min Rain = 0
KPA1 140448Z 09007KT 21/19 A3022 RMK A01 T02140193  RH  088%=      5-min Rain = 0
KPA1 140449Z 09006KT 22/19 A3022 RMK A01 T02150193  RH  087%=      5-min Rain = 0
KPA1 140450Z 09006KT 22/19 A3022 RMK A01 T02160193  RH  087%=      5-min Rain = 0
KPA1 140451Z 08006KT 22/19 A3022 RMK A01 T02160193  RH  087%=      5-min Rain = 0
KPA1 140452Z 07006KT 22/19 A3022 RMK A01 T02150193  RH  088%=      5-min Rain = 0
KPA1 140453Z 07006KT 21/19 A3022 RMK A01 T02140194  RH  088%=      5-min Rain = 0
KPA1 140454Z 07007KT 21/19 A3022 RMK A01 T02130194  RH  089%=      5-min Rain = 0
KPA1 140455Z 07007KT 21/19 A3023 RMK A01 T02130194  RH  089%=      5-min Rain = 0
KPA1 140456Z 07006KT 21/19 A3023 RMK A01 T02130194  RH  089%=      5-min Rain = 0
KPA1 140457Z 07006KT 21/19 A3023 RMK A01 T02130194  RH  089%=      5-min Rain = 0
KPA1 140458Z 07006KT 21/19 A3023 RMK A01 T02130194  RH  089%=      5-min Rain = 0
KPA1 140459Z 07006KT 21/19 A3023 RMK A01 T02130194  RH  089%=      5-min Rain = 0

Page generated in 0.279 seconds.